UAE219 OMDB-KMCO
Flight info
| Callsign | UAE219 |
|---|---|
| Flight time | N/A |
| Altitude | 28000 |
| Route | DAVMO M318 GABKO N440 RADEB M317 ROTAL P574 KASOL A418 SYZ P550 YSJ/N0503F300 P550 VUVAG R660 BORES L333 DASIS UL746 GIPDA/N0491F320 UL746 ODERO L621 REVDA DCT CND DCT RIVOS DCT EDETA DCT ELROM DCT NARKA DCT AMRAX DCT ODNEM DCT ELMEK DCT VEXIL DCT KATCE DCT HMM L602 SPY DCT RAVLO Y70 OTBED L60 ENCOD/N0485F340 L60 PENIL M144 BAGSO DCT LIMRI/M084F350 DCT 53N020W 54N030W 54N040W 52N050W DCT TUDEP/M084F360 DCT CARAC M201 VIRST Y494 WHOOS/N0483F360 Y494 AYCHB Y493 JENKS DCT 30N080W DCT OMN BITHO7 |
| Aircraft | B77W/H-SDE1E2E3FGHIJ2J3J4J5M1RWXY/LB1D1 |
Departure
| Time | N/A |
|---|---|
| Airport | Dubai International Airport (OMDB) |
Arrival
| Time | 2026-04-25 09:34 |
|---|---|
| Airport | Orlando International Airport (KMCO) |
| Time | Latitude | Longitude | Altitude | Speed | Heading |
|---|---|---|---|---|---|
| 2026-04-24 19:04 | 28.90052 | 53.01511 | 30050 ft | 485 kts | 324° |
| 2026-04-24 19:05 | 28.95878 | 52.97654 | 30040 ft | 483 kts | 324° |
| 2026-04-24 19:05 | 29.01673 | 52.93815 | 30059 ft | 480 kts | 323° |
| 2026-04-24 19:06 | 29.07450 | 52.89983 | 30060 ft | 478 kts | 323° |
| 2026-04-24 19:06 | 29.13191 | 52.86169 | 30060 ft | 477 kts | 323° |
| 2026-04-24 19:07 | 29.18920 | 52.82358 | 30075 ft | 475 kts | 323° |
| 2026-04-24 19:07 | 29.23672 | 52.79191 | 30060 ft | 474 kts | 323° |
| 2026-04-24 19:08 | 29.30278 | 52.74784 | 30064 ft | 472 kts | 323° |
| 2026-04-24 19:08 | 29.35946 | 52.70998 | 30089 ft | 471 kts | 323° |
| 2026-04-24 19:09 | 29.41607 | 52.67209 | 30077 ft | 470 kts | 323° |
| 2026-04-24 19:09 | 29.47262 | 52.63421 | 30061 ft | 470 kts | 323° |
| 2026-04-24 19:10 | 29.52731 | 52.59390 | 30056 ft | 462 kts | 315° |
| 2026-04-24 19:10 | 29.57455 | 52.54478 | 30070 ft | 454 kts | 306° |
| 2026-04-24 19:11 | 29.61588 | 52.49022 | 30074 ft | 453 kts | 304° |
| 2026-04-24 19:11 | 29.65720 | 52.43539 | 30034 ft | 453 kts | 305° |
| 2026-04-24 19:12 | 29.69861 | 52.38115 | 30101 ft | 451 kts | 305° |
| 2026-04-24 19:12 | 29.73997 | 52.32679 | 30088 ft | 451 kts | 304° |
| 2026-04-24 19:13 | 29.77413 | 52.28143 | 30091 ft | 452 kts | 305° |
| 2026-04-24 19:13 | 29.82219 | 52.21799 | 30083 ft | 452 kts | 305° |
| 2026-04-24 19:14 | 29.86592 | 52.16563 | 30092 ft | 459 kts | 313° |
| 2026-04-24 19:14 | 29.91839 | 52.12250 | 30085 ft | 463 kts | 321° |
| 2026-04-24 19:14 | 29.94768 | 52.10607 | 30110 ft | 476 kts | 333° |
| 2026-04-24 19:15 | 29.97984 | 52.09544 | 30095 ft | 485 kts | 338° |
| 2026-04-24 19:15 | 30.04380 | 52.07335 | 30077 ft | 467 kts | 322° |
| 2026-04-24 19:15 | 30.06886 | 52.05098 | 30120 ft | 449 kts | 307° |
| 2026-04-24 19:16 | 30.11014 | 51.99647 | 30102 ft | 456 kts | 308° |
| 2026-04-24 19:16 | 30.15845 | 51.94770 | 30098 ft | 466 kts | 317° |
| 2026-04-24 19:17 | 30.21284 | 51.90578 | 30108 ft | 472 kts | 321° |
| 2026-04-24 19:17 | 30.26886 | 51.86604 | 30095 ft | 472 kts | 321° |
| 2026-04-24 19:18 | 30.32465 | 51.82619 | 30106 ft | 470 kts | 321° |
| 2026-04-24 19:18 | 30.37999 | 51.78608 | 30096 ft | 468 kts | 320° |
| 2026-04-24 19:19 | 30.43517 | 51.74578 | 30113 ft | 469 kts | 321° |
| 2026-04-24 19:19 | 30.49054 | 51.70533 | 30107 ft | 472 kts | 321° |
| 2026-04-24 19:20 | 30.54575 | 51.66493 | 30119 ft | 473 kts | 321° |
| 2026-04-24 19:20 | 30.60150 | 51.62412 | 30131 ft | 474 kts | 321° |
| 2026-04-24 19:21 | 30.65741 | 51.58314 | 30115 ft | 475 kts | 321° |
| 2026-04-24 19:21 | 30.71323 | 51.54197 | 30232 ft | 474 kts | 320° |
| 2026-04-24 19:22 | 30.76801 | 51.50000 | 30245 ft | 474 kts | 320° |
| 2026-04-24 19:22 | 30.82288 | 51.45748 | 30224 ft | 474 kts | 320° |
| 2026-04-24 19:23 | 30.87802 | 51.41485 | 30194 ft | 475 kts | 320° |
| 2026-04-24 19:23 | 30.93319 | 51.37227 | 30193 ft | 476 kts | 320° |
| 2026-04-24 19:24 | 30.98838 | 51.32968 | 30151 ft | 476 kts | 320° |
| 2026-04-24 19:24 | 31.04364 | 51.28695 | 30150 ft | 476 kts | 320° |
| 2026-04-24 19:25 | 31.09884 | 51.24421 | 30175 ft | 476 kts | 320° |
| 2026-04-24 19:25 | 31.15354 | 51.20181 | 30156 ft | 475 kts | 320° |
| 2026-04-24 19:26 | 31.20843 | 51.15920 | 30144 ft | 472 kts | 320° |
| 2026-04-24 19:26 | 31.26308 | 51.11670 | 30161 ft | 471 kts | 320° |
| 2026-04-24 19:27 | 31.31770 | 51.07411 | 30142 ft | 473 kts | 319° |
| 2026-04-24 19:27 | 31.37241 | 51.03146 | 30148 ft | 471 kts | 319° |
| 2026-04-24 19:28 | 31.42681 | 50.98904 | 30153 ft | 469 kts | 319° |
| 2026-04-24 19:28 | 31.48070 | 50.94690 | 30160 ft | 468 kts | 319° |
| 2026-04-24 19:29 | 31.56174 | 50.88341 | 30165 ft | 467 kts | 319° |
| 2026-04-24 19:30 | 31.61570 | 50.84102 | 30182 ft | 466 kts | 319° |
| 2026-04-24 19:30 | 31.66962 | 50.79865 | 30157 ft | 466 kts | 319° |
| 2026-04-24 19:31 | 31.72344 | 50.75634 | 30151 ft | 464 kts | 319° |
| 2026-04-24 19:31 | 31.77705 | 50.71406 | 30178 ft | 462 kts | 319° |
| 2026-04-24 19:32 | 31.83044 | 50.67187 | 30169 ft | 462 kts | 319° |
| 2026-04-24 19:32 | 31.88385 | 50.62968 | 30141 ft | 462 kts | 319° |
| 2026-04-24 19:33 | 31.93689 | 50.58773 | 30138 ft | 462 kts | 319° |
| 2026-04-24 19:33 | 31.99022 | 50.54541 | 30155 ft | 462 kts | 319° |
| 2026-04-24 19:34 | 32.04356 | 50.50307 | 30148 ft | 462 kts | 319° |
| 2026-04-24 19:34 | 32.08792 | 50.46785 | 30145 ft | 462 kts | 319° |
| 2026-04-24 19:35 | 32.14129 | 50.42539 | 30171 ft | 463 kts | 319° |
| 2026-04-24 19:35 | 32.19464 | 50.38282 | 30174 ft | 464 kts | 319° |
| 2026-04-24 19:36 | 32.24829 | 50.34001 | 30179 ft | 465 kts | 319° |
| 2026-04-24 19:36 | 32.30198 | 50.29710 | 30162 ft | 466 kts | 319° |
| 2026-04-24 19:37 | 32.35531 | 50.25442 | 30173 ft | 466 kts | 319° |
| 2026-04-24 19:37 | 32.40896 | 50.21145 | 30146 ft | 463 kts | 318° |
| 2026-04-24 19:38 | 32.46226 | 50.16866 | 30172 ft | 462 kts | 318° |
| 2026-04-24 19:38 | 32.51532 | 50.12599 | 30172 ft | 460 kts | 318° |
| 2026-04-24 19:39 | 32.56828 | 50.08336 | 30164 ft | 459 kts | 318° |
| 2026-04-24 19:39 | 32.62128 | 50.04054 | 30195 ft | 463 kts | 319° |
| 2026-04-24 19:40 | 32.67460 | 49.99749 | 30174 ft | 467 kts | 319° |
| 2026-04-24 19:40 | 32.70149 | 49.97578 | 30343 ft | 468 kts | 318° |
| 2026-04-24 19:40 | 32.72832 | 49.95408 | 30740 ft | 464 kts | 318° |
| 2026-04-24 19:40 | 32.75523 | 49.93235 | 31154 ft | 461 kts | 318° |
| 2026-04-24 19:41 | 32.78155 | 49.91108 | 31124 ft | 463 kts | 318° |
| 2026-04-24 19:41 | 32.83475 | 49.86791 | 31165 ft | 462 kts | 318° |
| 2026-04-24 19:42 | 32.88770 | 49.82480 | 31172 ft | 461 kts | 318° |
| 2026-04-24 19:42 | 32.94067 | 49.78170 | 31172 ft | 461 kts | 318° |
| 2026-04-24 19:43 | 32.99378 | 49.73848 | 31151 ft | 462 kts | 318° |
| 2026-04-24 19:43 | 33.04682 | 49.69520 | 31158 ft | 463 kts | 318° |
| 2026-04-24 19:44 | 33.09997 | 49.65170 | 31157 ft | 463 kts | 318° |
| 2026-04-24 19:44 | 33.15282 | 49.60849 | 31156 ft | 464 kts | 319° |
| 2026-04-24 19:45 | 33.20603 | 49.56490 | 31156 ft | 464 kts | 318° |
| 2026-04-24 19:45 | 33.25905 | 49.52095 | 31158 ft | 464 kts | 318° |
| 2026-04-24 19:46 | 33.31215 | 49.47667 | 31161 ft | 465 kts | 318° |
| 2026-04-24 19:46 | 33.36531 | 49.43228 | 31166 ft | 466 kts | 318° |
| 2026-04-24 19:47 | 33.41865 | 49.38772 | 31154 ft | 467 kts | 319° |
| 2026-04-24 19:47 | 33.47162 | 49.34344 | 31152 ft | 468 kts | 319° |
| 2026-04-24 19:48 | 33.52494 | 49.29878 | 31143 ft | 468 kts | 318° |
| 2026-04-24 19:48 | 33.60504 | 49.23156 | 31137 ft | 468 kts | 318° |
| 2026-04-24 19:49 | 33.71171 | 49.14180 | 31121 ft | 468 kts | 319° |
| 2026-04-24 19:50 | 33.81787 | 49.05220 | 31157 ft | 467 kts | 319° |
| 2026-04-24 19:51 | 33.89762 | 48.98472 | 31132 ft | 467 kts | 319° |
| 2026-04-24 19:52 | 33.97727 | 48.91714 | 31160 ft | 466 kts | 319° |
| 2026-04-24 19:52 | 34.03033 | 48.87203 | 31148 ft | 467 kts | 319° |
| 2026-04-24 19:53 | 34.08335 | 48.82691 | 31141 ft | 466 kts | 319° |
| 2026-04-24 19:54 | 34.16255 | 48.75936 | 31138 ft | 467 kts | 319° |
| 2026-04-24 19:54 | 34.21558 | 48.71404 | 31135 ft | 467 kts | 319° |
| 2026-04-24 19:55 | 34.25998 | 48.67603 | 31150 ft | 467 kts | 319° |
| 2026-04-24 19:55 | 34.32159 | 48.62321 | 31143 ft | 467 kts | 319° |
| 2026-04-24 19:56 | 34.37463 | 48.57768 | 31142 ft | 467 kts | 319° |
| 2026-04-24 19:56 | 34.42764 | 48.53209 | 31154 ft | 467 kts | 319° |
| 2026-04-24 19:57 | 34.48065 | 48.48643 | 31141 ft | 467 kts | 319° |
| 2026-04-24 19:57 | 34.53364 | 48.44071 | 31148 ft | 467 kts | 319° |
| 2026-04-24 19:58 | 34.58628 | 48.39522 | 31158 ft | 467 kts | 319° |
| 2026-04-24 19:58 | 34.63921 | 48.34940 | 31163 ft | 467 kts | 319° |
| 2026-04-24 19:59 | 34.69216 | 48.30349 | 31172 ft | 467 kts | 319° |
| 2026-04-24 19:59 | 34.74507 | 48.25756 | 31147 ft | 467 kts | 319° |
| 2026-04-24 20:00 | 34.79784 | 48.21166 | 31141 ft | 466 kts | 319° |
| 2026-04-24 20:00 | 34.85056 | 48.16575 | 31174 ft | 466 kts | 319° |
| 2026-04-24 20:01 | 34.90304 | 48.11993 | 31157 ft | 467 kts | 319° |
| 2026-04-24 20:01 | 34.95583 | 48.07381 | 31149 ft | 467 kts | 319° |
| 2026-04-24 20:02 | 34.99972 | 48.03538 | 31140 ft | 467 kts | 319° |
| 2026-04-24 20:02 | 35.06153 | 47.98119 | 31137 ft | 467 kts | 318° |
| 2026-04-24 20:03 | 35.11464 | 47.93515 | 31161 ft | 469 kts | 321° |
| 2026-04-24 20:03 | 35.16976 | 47.89217 | 31152 ft | 471 kts | 322° |
| 2026-04-24 20:04 | 35.22495 | 47.84997 | 31142 ft | 471 kts | 322° |
| 2026-04-24 20:04 | 35.28050 | 47.80721 | 31144 ft | 471 kts | 322° |
| 2026-04-24 20:05 | 35.33593 | 47.76422 | 31130 ft | 472 kts | 322° |
| 2026-04-24 20:05 | 35.39135 | 47.72111 | 31151 ft | 472 kts | 321° |
| 2026-04-24 20:06 | 35.44684 | 47.67785 | 31128 ft | 473 kts | 321° |
| 2026-04-24 20:06 | 35.50231 | 47.63455 | 31124 ft | 472 kts | 321° |
| 2026-04-24 20:07 | 35.54839 | 47.59854 | 31134 ft | 472 kts | 321° |
| 2026-04-24 20:07 | 35.61309 | 47.54790 | 31115 ft | 471 kts | 321° |
| 2026-04-24 20:08 | 35.66805 | 47.50479 | 31139 ft | 471 kts | 321° |
| 2026-04-24 20:08 | 35.72329 | 47.46139 | 31119 ft | 471 kts | 321° |
| 2026-04-24 20:09 | 35.77849 | 47.41796 | 31108 ft | 470 kts | 321° |
| 2026-04-24 20:09 | 35.83353 | 47.37456 | 31114 ft | 470 kts | 321° |
| 2026-04-24 20:10 | 35.88851 | 47.33117 | 31122 ft | 469 kts | 321° |
| 2026-04-24 20:10 | 35.94343 | 47.28772 | 31141 ft | 469 kts | 321° |
| 2026-04-24 20:11 | 35.99828 | 47.24426 | 31122 ft | 468 kts | 321° |
| 2026-04-24 20:11 | 36.05297 | 47.20087 | 31119 ft | 466 kts | 321° |
| 2026-04-24 20:12 | 36.10709 | 47.15784 | 31125 ft | 466 kts | 321° |
| 2026-04-24 20:12 | 36.16161 | 47.11442 | 31114 ft | 465 kts | 321° |
| 2026-04-24 20:13 | 36.21607 | 47.07099 | 31131 ft | 465 kts | 321° |
| 2026-04-24 20:13 | 36.27069 | 47.02739 | 31119 ft | 467 kts | 321° |
| 2026-04-24 20:14 | 36.32540 | 46.98367 | 31119 ft | 468 kts | 321° |
| 2026-04-24 20:14 | 36.38024 | 46.93974 | 31109 ft | 469 kts | 321° |
| 2026-04-24 20:15 | 36.43515 | 46.89572 | 31110 ft | 470 kts | 320° |
| 2026-04-24 20:15 | 36.49004 | 46.85160 | 31122 ft | 469 kts | 320° |
| 2026-04-24 20:16 | 36.54474 | 46.80758 | 31089 ft | 468 kts | 320° |
| 2026-04-24 20:16 | 36.59898 | 46.76384 | 31092 ft | 467 kts | 320° |
| 2026-04-24 20:17 | 36.65351 | 46.71980 | 31095 ft | 467 kts | 320° |
| 2026-04-24 20:17 | 36.73505 | 46.65377 | 31081 ft | 465 kts | 320° |
| 2026-04-24 20:18 | 36.78928 | 46.60979 | 31087 ft | 465 kts | 320° |
| 2026-04-24 20:18 | 36.84349 | 46.56572 | 31073 ft | 465 kts | 320° |
| 2026-04-24 20:19 | 36.89773 | 46.52156 | 31092 ft | 465 kts | 320° |
| 2026-04-24 20:19 | 36.95162 | 46.47761 | 31071 ft | 465 kts | 320° |
| 2026-04-24 20:20 | 37.00583 | 46.43333 | 31048 ft | 465 kts | 320° |
| 2026-04-24 20:20 | 37.05994 | 46.38907 | 31063 ft | 464 kts | 319° |
| 2026-04-24 20:21 | 37.11390 | 46.34484 | 31068 ft | 463 kts | 319° |
| 2026-04-24 20:21 | 37.16778 | 46.30060 | 31064 ft | 463 kts | 319° |
| 2026-04-24 20:22 | 37.22166 | 46.25627 | 31063 ft | 463 kts | 319° |
| 2026-04-24 20:22 | 37.27520 | 46.21214 | 31056 ft | 464 kts | 319° |
| 2026-04-24 20:23 | 37.32914 | 46.16763 | 31052 ft | 464 kts | 319° |
| 2026-04-24 20:23 | 37.38316 | 46.12296 | 31064 ft | 465 kts | 319° |
| 2026-04-24 20:24 | 37.43726 | 46.07814 | 31057 ft | 466 kts | 319° |
| 2026-04-24 20:24 | 37.49143 | 46.03319 | 31055 ft | 466 kts | 319° |
| 2026-04-24 20:25 | 37.53647 | 45.99576 | 31040 ft | 466 kts | 319° |
| 2026-04-24 20:25 | 37.59066 | 45.95066 | 31026 ft | 466 kts | 319° |
| 2026-04-24 20:26 | 37.65682 | 45.90377 | 31021 ft | 476 kts | 329° |
| 2026-04-24 20:26 | 37.70809 | 45.87690 | 31017 ft | 476 kts | 330° |
| 2026-04-24 20:27 | 37.76932 | 45.84485 | 31016 ft | 476 kts | 329° |
| 2026-04-24 20:27 | 37.83031 | 45.81244 | 31011 ft | 475 kts | 329° |
| 2026-04-24 20:28 | 37.89074 | 45.78005 | 31005 ft | 475 kts | 329° |
| 2026-04-24 20:28 | 37.95153 | 45.74739 | 31007 ft | 474 kts | 328° |
| 2026-04-24 20:29 | 38.01230 | 45.71466 | 31010 ft | 474 kts | 328° |
| 2026-04-24 20:29 | 38.07300 | 45.68193 | 30993 ft | 474 kts | 328° |
| 2026-04-24 20:30 | 38.13365 | 45.64919 | 30986 ft | 473 kts | 328° |
| 2026-04-24 20:30 | 38.19428 | 45.61639 | 30982 ft | 473 kts | 328° |
| 2026-04-24 20:31 | 38.25485 | 45.58355 | 30988 ft | 473 kts | 328° |
| 2026-04-24 20:31 | 38.31538 | 45.55069 | 30959 ft | 473 kts | 328° |
| 2026-04-24 20:32 | 38.37559 | 45.51797 | 30958 ft | 464 kts | 326° |
| 2026-04-24 20:32 | 38.40318 | 45.49779 | 30982 ft | 449 kts | 313° |
| 2026-04-24 20:32 | 38.42582 | 45.47120 | 30940 ft | 438 kts | 304° |
| 2026-04-24 20:33 | 38.45801 | 45.40702 | 30973 ft | 427 kts | 288° |
| 2026-04-24 20:33 | 38.48330 | 45.33779 | 30936 ft | 432 kts | 290° |
| 2026-04-24 20:34 | 38.50964 | 45.26915 | 30974 ft | 433 kts | 290° |
| 2026-04-24 20:34 | 38.53625 | 45.19993 | 30932 ft | 433 kts | 290° |
| 2026-04-24 20:35 | 38.56269 | 45.13082 | 30914 ft | 432 kts | 290° |
| 2026-04-24 20:35 | 38.58891 | 45.06201 | 30918 ft | 430 kts | 290° |
| 2026-04-24 20:36 | 38.61500 | 44.99327 | 30919 ft | 429 kts | 290° |
| 2026-04-24 20:36 | 38.64104 | 44.92452 | 30920 ft | 429 kts | 290° |
| 2026-04-24 20:37 | 38.66707 | 44.85565 | 30928 ft | 430 kts | 290° |
| 2026-04-24 20:37 | 38.69306 | 44.78673 | 30940 ft | 430 kts | 290° |
| 2026-04-24 20:38 | 38.71894 | 44.71795 | 30945 ft | 433 kts | 290° |
| 2026-04-24 20:38 | 38.74511 | 44.64823 | 30946 ft | 435 kts | 290° |
| 2026-04-24 20:39 | 38.77136 | 44.57817 | 30941 ft | 436 kts | 290° |
| 2026-04-24 20:39 | 38.79758 | 44.50805 | 30957 ft | 436 kts | 289° |
| 2026-04-24 20:40 | 38.82366 | 44.43809 | 30961 ft | 433 kts | 289° |
| 2026-04-24 20:40 | 38.84960 | 44.36838 | 30971 ft | 432 kts | 289° |
| 2026-04-24 20:41 | 38.87546 | 44.29867 | 31013 ft | 432 kts | 289° |
| 2026-04-24 20:41 | 38.90124 | 44.22906 | 30978 ft | 431 kts | 289° |
| 2026-04-24 20:42 | 38.92688 | 44.15951 | 30989 ft | 430 kts | 289° |
| 2026-04-24 20:42 | 38.95233 | 44.09000 | 30993 ft | 429 kts | 289° |
| 2026-04-24 20:43 | 38.97748 | 44.02118 | 30986 ft | 428 kts | 289° |
| 2026-04-24 20:43 | 39.00276 | 43.95185 | 30977 ft | 428 kts | 289° |
| 2026-04-24 20:44 | 39.02798 | 43.88253 | 30975 ft | 427 kts | 289° |
| 2026-04-24 20:44 | 39.05309 | 43.81336 | 31015 ft | 427 kts | 289° |
| 2026-04-24 20:45 | 39.07822 | 43.74395 | 31001 ft | 429 kts | 289° |
| 2026-04-24 20:45 | 39.10336 | 43.67436 | 30992 ft | 428 kts | 289° |
| 2026-04-24 20:46 | 39.12831 | 43.60518 | 30991 ft | 428 kts | 288° |
| 2026-04-24 20:46 | 39.15335 | 43.53556 | 31029 ft | 428 kts | 288° |
| 2026-04-24 20:47 | 39.17832 | 43.46597 | 31010 ft | 427 kts | 288° |
| 2026-04-24 20:47 | 39.20316 | 43.39659 | 31027 ft | 425 kts | 288° |
| 2026-04-24 20:48 | 39.22788 | 43.32738 | 31014 ft | 424 kts | 288° |
| 2026-04-24 20:48 | 39.25244 | 43.25840 | 31022 ft | 423 kts | 288° |
| 2026-04-24 20:49 | 39.27695 | 43.18942 | 31013 ft | 423 kts | 288° |
| 2026-04-24 20:49 | 39.30136 | 43.12053 | 31000 ft | 422 kts | 288° |
| 2026-04-24 20:50 | 39.32576 | 43.05157 | 31027 ft | 422 kts | 288° |
| 2026-04-24 20:50 | 39.35004 | 42.98280 | 31021 ft | 424 kts | 288° |
| 2026-04-24 20:51 | 39.37455 | 42.91314 | 31004 ft | 426 kts | 288° |
| 2026-04-24 20:51 | 39.39911 | 42.84317 | 30985 ft | 428 kts | 288° |
| 2026-04-24 20:52 | 39.42367 | 42.77310 | 30999 ft | 428 kts | 287° |
| 2026-04-24 20:52 | 39.44823 | 42.70285 | 30989 ft | 428 kts | 287° |
| 2026-04-24 20:53 | 39.47272 | 42.63262 | 30970 ft | 428 kts | 287° |
| 2026-04-24 20:53 | 39.49715 | 42.56241 | 30980 ft | 427 kts | 287° |
| 2026-04-24 20:54 | 39.52133 | 42.49270 | 30983 ft | 427 kts | 287° |
| 2026-04-24 20:54 | 39.54559 | 42.42260 | 30981 ft | 426 kts | 287° |
| 2026-04-24 20:55 | 39.56978 | 42.35258 | 30984 ft | 425 kts | 287° |
| 2026-04-24 20:55 | 39.59392 | 42.28251 | 30978 ft | 425 kts | 287° |
| 2026-04-24 20:56 | 39.61797 | 42.21253 | 30986 ft | 424 kts | 287° |
| 2026-04-24 20:56 | 39.64192 | 42.14264 | 30985 ft | 423 kts | 287° |
| 2026-04-24 20:57 | 39.66578 | 42.07284 | 30990 ft | 423 kts | 287° |
| 2026-04-24 20:57 | 39.68946 | 42.00341 | 30988 ft | 423 kts | 287° |
| 2026-04-24 20:58 | 39.71329 | 41.93335 | 30989 ft | 424 kts | 287° |
| 2026-04-24 20:58 | 39.73711 | 41.86317 | 30988 ft | 425 kts | 287° |
| 2026-04-24 20:59 | 39.76091 | 41.79286 | 30988 ft | 425 kts | 287° |
| 2026-04-24 20:59 | 39.78469 | 41.72250 | 31028 ft | 424 kts | 286° |
| 2026-04-24 21:00 | 39.80835 | 41.65230 | 31007 ft | 423 kts | 286° |
| 2026-04-24 21:00 | 39.83189 | 41.58230 | 31003 ft | 421 kts | 286° |
| 2026-04-24 21:01 | 39.85512 | 41.51299 | 31022 ft | 420 kts | 286° |
| 2026-04-24 21:01 | 39.87840 | 41.44341 | 31022 ft | 419 kts | 286° |
| 2026-04-24 21:02 | 39.90160 | 41.37381 | 31017 ft | 419 kts | 286° |
| 2026-04-24 21:02 | 39.92483 | 41.30396 | 31022 ft | 420 kts | 286° |
| 2026-04-24 21:03 | 39.94807 | 41.23398 | 31076 ft | 421 kts | 286° |
| 2026-04-24 21:03 | 39.97083 | 41.16380 | 31083 ft | 420 kts | 285° |
| 2026-04-24 21:04 | 39.99255 | 41.09306 | 31081 ft | 420 kts | 284° |
| 2026-04-24 21:04 | 40.01416 | 41.02224 | 31071 ft | 420 kts | 284° |
| 2026-04-24 21:05 | 40.03581 | 40.95147 | 31064 ft | 420 kts | 284° |
| 2026-04-24 21:05 | 40.05755 | 40.88053 | 31083 ft | 420 kts | 284° |
| 2026-04-24 21:06 | 40.07920 | 40.80967 | 31039 ft | 420 kts | 284° |
| 2026-04-24 21:06 | 40.10066 | 40.73931 | 31041 ft | 419 kts | 284° |
| 2026-04-24 21:07 | 40.12216 | 40.66854 | 31029 ft | 419 kts | 284° |
| 2026-04-24 21:07 | 40.14363 | 40.59777 | 31042 ft | 419 kts | 284° |
| 2026-04-24 21:08 | 40.16507 | 40.52696 | 31040 ft | 419 kts | 284° |
| 2026-04-24 21:08 | 40.18645 | 40.45601 | 31037 ft | 419 kts | 284° |
| 2026-04-24 21:09 | 40.20781 | 40.38501 | 31075 ft | 419 kts | 284° |
| 2026-04-24 21:09 | 40.22910 | 40.31408 | 31059 ft | 418 kts | 284° |
| 2026-04-24 21:10 | 40.25018 | 40.24365 | 31050 ft | 418 kts | 284° |
| 2026-04-24 21:10 | 40.27128 | 40.17295 | 31044 ft | 416 kts | 284° |
| 2026-04-24 21:11 | 40.29226 | 40.10250 | 31079 ft | 414 kts | 284° |
| 2026-04-24 21:11 | 40.31313 | 40.03220 | 31062 ft | 414 kts | 284° |
| 2026-04-24 21:12 | 40.33043 | 39.97378 | 31062 ft | 413 kts | 284° |
| 2026-04-24 21:12 | 40.35465 | 39.89173 | 31058 ft | 412 kts | 284° |
| 2026-04-24 21:13 | 40.37520 | 39.82193 | 31115 ft | 414 kts | 284° |
| 2026-04-24 21:13 | 40.39617 | 39.75049 | 31077 ft | 419 kts | 284° |
| 2026-04-24 21:14 | 40.41704 | 39.67929 | 31077 ft | 422 kts | 284° |
| 2026-04-24 21:14 | 40.43807 | 39.60715 | 31088 ft | 423 kts | 284° |
| 2026-04-24 21:15 | 40.45904 | 39.53489 | 31109 ft | 423 kts | 285° |
| 2026-04-24 21:15 | 40.48006 | 39.46223 | 31094 ft | 426 kts | 285° |
| 2026-04-24 21:16 | 40.49755 | 39.40165 | 31091 ft | 427 kts | 285° |
| 2026-04-24 21:16 | 40.52204 | 39.31665 | 31096 ft | 427 kts | 285° |
| 2026-04-24 21:17 | 40.54301 | 39.24358 | 31125 ft | 427 kts | 285° |
| 2026-04-24 21:17 | 40.56061 | 39.18214 | 31113 ft | 428 kts | 285° |
| 2026-04-24 21:18 | 40.58158 | 39.10871 | 31076 ft | 429 kts | 285° |
| 2026-04-24 21:18 | 40.60236 | 39.03574 | 31103 ft | 429 kts | 285° |
| 2026-04-24 21:19 | 40.62323 | 38.96225 | 31125 ft | 429 kts | 285° |
| 2026-04-24 21:19 | 40.64409 | 38.88852 | 31072 ft | 430 kts | 285° |
| 2026-04-24 21:20 | 40.67495 | 38.77758 | 31093 ft | 430 kts | 285° |
| 2026-04-24 21:21 | 40.69540 | 38.70358 | 31114 ft | 429 kts | 285° |
| 2026-04-24 21:21 | 40.71581 | 38.62956 | 31073 ft | 430 kts | 285° |
| 2026-04-24 21:22 | 40.73617 | 38.55565 | 31107 ft | 428 kts | 285° |
| 2026-04-24 21:22 | 40.75649 | 38.48159 | 31094 ft | 430 kts | 285° |
| 2026-04-24 21:23 | 40.77670 | 38.40774 | 31072 ft | 431 kts | 285° |
| 2026-04-24 21:23 | 40.79699 | 38.33339 | 31085 ft | 430 kts | 285° |
| 2026-04-24 21:24 | 40.81722 | 38.25908 | 31092 ft | 429 kts | 285° |
| 2026-04-24 21:24 | 40.83731 | 38.18501 | 31100 ft | 428 kts | 285° |
| 2026-04-24 21:25 | 40.85736 | 38.11090 | 31095 ft | 427 kts | 285° |
| 2026-04-24 21:25 | 40.87728 | 38.03697 | 31107 ft | 427 kts | 285° |
| 2026-04-24 21:26 | 40.89718 | 37.96296 | 31105 ft | 427 kts | 285° |
| 2026-04-24 21:26 | 40.91692 | 37.88933 | 31105 ft | 428 kts | 285° |
| 2026-04-24 21:27 | 40.93678 | 37.81499 | 31094 ft | 428 kts | 285° |
| 2026-04-24 21:27 | 40.95661 | 37.74052 | 31099 ft | 430 kts | 285° |
| 2026-04-24 21:28 | 40.97651 | 37.66564 | 31091 ft | 432 kts | 285° |
| 2026-04-24 21:28 | 40.99641 | 37.59051 | 31092 ft | 433 kts | 285° |
| 2026-04-24 21:29 | 41.01615 | 37.51573 | 31079 ft | 433 kts | 285° |
| 2026-04-24 21:29 | 41.03600 | 37.44033 | 31087 ft | 434 kts | 286° |
| 2026-04-24 21:30 | 41.05584 | 37.36474 | 31087 ft | 435 kts | 286° |
| 2026-04-24 21:30 | 41.07565 | 37.28901 | 31091 ft | 435 kts | 286° |
| 2026-04-24 21:31 | 41.09543 | 37.21317 | 31089 ft | 435 kts | 286° |
| 2026-04-24 21:31 | 41.11517 | 37.13724 | 31068 ft | 436 kts | 286° |
| 2026-04-24 21:32 | 41.13490 | 37.06109 | 31079 ft | 437 kts | 286° |
| 2026-04-24 21:32 | 41.15463 | 36.98473 | 31083 ft | 438 kts | 286° |
| 2026-04-24 21:33 | 41.17437 | 36.90809 | 31074 ft | 439 kts | 286° |
| 2026-04-24 21:33 | 41.19410 | 36.83121 | 31073 ft | 440 kts | 287° |
| 2026-04-24 21:34 | 41.21372 | 36.75454 | 31075 ft | 441 kts | 286° |
| 2026-04-24 21:34 | 41.23345 | 36.67720 | 31077 ft | 442 kts | 286° |
| 2026-04-24 21:35 | 41.25315 | 36.59975 | 31075 ft | 442 kts | 287° |
| 2026-04-24 21:35 | 41.27283 | 36.52218 | 31066 ft | 443 kts | 287° |
| 2026-04-24 21:36 | 41.29266 | 36.44450 | 31066 ft | 444 kts | 287° |
| 2026-04-24 21:36 | 41.31249 | 36.36672 | 31062 ft | 444 kts | 287° |
| 2026-04-24 21:37 | 41.33211 | 36.28939 | 31070 ft | 444 kts | 287° |
| 2026-04-24 21:37 | 41.35182 | 36.21144 | 31059 ft | 445 kts | 287° |
| 2026-04-24 21:38 | 41.37150 | 36.13336 | 31064 ft | 445 kts | 287° |
| 2026-04-24 21:38 | 41.39113 | 36.05517 | 31055 ft | 446 kts | 287° |
| 2026-04-24 21:39 | 41.41076 | 35.97674 | 31055 ft | 446 kts | 288° |
| 2026-04-24 21:39 | 41.43037 | 35.89817 | 31053 ft | 447 kts | 288° |
| 2026-04-24 21:40 | 41.44994 | 35.81944 | 31049 ft | 448 kts | 288° |
| 2026-04-24 21:40 | 41.46950 | 35.74053 | 31049 ft | 448 kts | 288° |
| 2026-04-24 21:41 | 41.48896 | 35.66170 | 31051 ft | 448 kts | 287° |
| 2026-04-24 21:41 | 41.50837 | 35.58289 | 31046 ft | 447 kts | 287° |
| 2026-04-24 21:42 | 41.52773 | 35.50396 | 31059 ft | 447 kts | 287° |
| 2026-04-24 21:42 | 41.54702 | 35.42507 | 31052 ft | 447 kts | 287° |
| 2026-04-24 21:43 | 41.56627 | 35.34604 | 31056 ft | 447 kts | 288° |
| 2026-04-24 21:43 | 41.58535 | 35.26746 | 31032 ft | 449 kts | 288° |
| 2026-04-24 21:44 | 41.60459 | 35.18799 | 31061 ft | 450 kts | 288° |
| 2026-04-24 21:44 | 41.62382 | 35.10827 | 31074 ft | 451 kts | 288° |
| 2026-04-24 21:45 | 41.64304 | 35.02822 | 31069 ft | 453 kts | 289° |
| 2026-04-24 21:45 | 41.66228 | 34.94791 | 31078 ft | 454 kts | 289° |
| 2026-04-24 21:46 | 41.68154 | 34.86727 | 31079 ft | 455 kts | 289° |
| 2026-04-24 21:46 | 41.70075 | 34.78646 | 31075 ft | 455 kts | 288° |
| 2026-04-24 21:47 | 41.71977 | 34.70615 | 31070 ft | 456 kts | 289° |
| 2026-04-24 21:47 | 41.73891 | 34.62516 | 31075 ft | 456 kts | 289° |
| 2026-04-24 21:48 | 41.75799 | 34.54404 | 31078 ft | 456 kts | 289° |
| 2026-04-24 21:48 | 41.77697 | 34.46297 | 31084 ft | 456 kts | 289° |
| 2026-04-24 21:49 | 41.79592 | 34.38179 | 31083 ft | 456 kts | 290° |
| 2026-04-24 21:49 | 41.81482 | 34.30055 | 31076 ft | 457 kts | 290° |
| 2026-04-24 21:50 | 41.83368 | 34.21916 | 31077 ft | 457 kts | 290° |
| 2026-04-24 21:50 | 41.85248 | 34.13768 | 31092 ft | 458 kts | 290° |
| 2026-04-24 21:51 | 41.87126 | 34.05604 | 31073 ft | 458 kts | 291° |
| 2026-04-24 21:51 | 41.88998 | 33.97437 | 31087 ft | 458 kts | 291° |
| 2026-04-24 21:52 | 41.90856 | 33.89302 | 31089 ft | 459 kts | 291° |
| 2026-04-24 21:52 | 41.92720 | 33.81106 | 31077 ft | 459 kts | 291° |
| 2026-04-24 21:53 | 41.94580 | 33.72906 | 31071 ft | 459 kts | 291° |
| 2026-04-24 21:53 | 41.96342 | 33.64655 | 31059 ft | 460 kts | 289° |
| 2026-04-24 21:54 | 41.97912 | 33.56302 | 31085 ft | 462 kts | 289° |
| 2026-04-24 21:54 | 41.99483 | 33.47927 | 31056 ft | 462 kts | 289° |
| 2026-04-24 21:55 | 42.01079 | 33.39543 | 31064 ft | 463 kts | 289° |
| 2026-04-24 21:55 | 42.02678 | 33.31179 | 31049 ft | 465 kts | 289° |
| 2026-04-24 21:56 | 42.04281 | 33.22742 | 31057 ft | 466 kts | 289° |
| 2026-04-24 21:56 | 42.05880 | 33.14281 | 31049 ft | 467 kts | 289° |
| 2026-04-24 21:57 | 42.07488 | 33.05794 | 31050 ft | 468 kts | 290° |
| 2026-04-24 21:57 | 42.09216 | 32.97349 | 31042 ft | 468 kts | 291° |
| 2026-04-24 21:58 | 42.10970 | 32.88914 | 31041 ft | 468 kts | 291° |
| 2026-04-24 21:58 | 42.12703 | 32.80456 | 31024 ft | 469 kts | 291° |
| 2026-04-24 21:59 | 42.14425 | 32.71968 | 31037 ft | 469 kts | 290° |
| 2026-04-24 21:59 | 42.16143 | 32.63475 | 31036 ft | 470 kts | 290° |
| 2026-04-24 22:00 | 42.17843 | 32.55019 | 31037 ft | 470 kts | 290° |
| 2026-04-24 22:00 | 42.19543 | 32.46512 | 31038 ft | 470 kts | 290° |
| 2026-04-24 22:01 | 42.21238 | 32.37996 | 31037 ft | 470 kts | 290° |
| 2026-04-24 22:01 | 42.22929 | 32.29472 | 31034 ft | 470 kts | 290° |
| 2026-04-24 22:02 | 42.24613 | 32.20947 | 31035 ft | 470 kts | 290° |
| 2026-04-24 22:02 | 42.26296 | 32.12422 | 31032 ft | 470 kts | 290° |
| 2026-04-24 22:03 | 42.27967 | 32.03897 | 31034 ft | 470 kts | 290° |
| 2026-04-24 22:03 | 42.29629 | 31.95350 | 31033 ft | 471 kts | 290° |
| 2026-04-24 22:04 | 42.31288 | 31.86784 | 31020 ft | 471 kts | 290° |
| 2026-04-24 22:04 | 42.32932 | 31.78265 | 31032 ft | 471 kts | 290° |
| 2026-04-24 22:05 | 42.34583 | 31.69679 | 31015 ft | 473 kts | 289° |
| 2026-04-24 22:05 | 42.36232 | 31.61057 | 31028 ft | 474 kts | 289° |
| 2026-04-24 22:06 | 42.37611 | 31.53822 | 31019 ft | 474 kts | 289° |
| 2026-04-24 22:06 | 42.39244 | 31.45213 | 31027 ft | 476 kts | 289° |
| 2026-04-24 22:07 | 42.40886 | 31.36522 | 31029 ft | 477 kts | 289° |
| 2026-04-24 22:07 | 42.42523 | 31.27812 | 31027 ft | 478 kts | 289° |
| 2026-04-24 22:08 | 42.44157 | 31.19085 | 31012 ft | 478 kts | 289° |
| 2026-04-24 22:08 | 42.45784 | 31.10356 | 31025 ft | 478 kts | 289° |
| 2026-04-24 22:09 | 42.47406 | 31.01634 | 31030 ft | 478 kts | 289° |
| 2026-04-24 22:09 | 42.49023 | 30.92909 | 31024 ft | 477 kts | 289° |
| 2026-04-24 22:10 | 42.50621 | 30.84244 | 31015 ft | 477 kts | 289° |
| 2026-04-24 22:10 | 42.52226 | 30.75501 | 31020 ft | 477 kts | 289° |
| 2026-04-24 22:11 | 42.53822 | 30.66768 | 31028 ft | 477 kts | 289° |
| 2026-04-24 22:11 | 42.55412 | 30.58023 | 31029 ft | 477 kts | 289° |
| 2026-04-24 22:12 | 42.56995 | 30.49278 | 31020 ft | 477 kts | 288° |
| 2026-04-24 22:12 | 42.58572 | 30.40528 | 31020 ft | 478 kts | 288° |
| 2026-04-24 22:13 | 42.60197 | 30.31798 | 31003 ft | 473 kts | 294° |
| 2026-04-24 22:13 | 42.61585 | 30.27813 | 31028 ft | 463 kts | 307° |
| 2026-04-24 22:13 | 42.63527 | 30.24360 | 31019 ft | 459 kts | 317° |
| 2026-04-24 22:14 | 42.68454 | 30.19038 | 31024 ft | 453 kts | 328° |
| 2026-04-24 22:14 | 42.73607 | 30.14112 | 31019 ft | 457 kts | 327° |
| 2026-04-24 22:15 | 42.78798 | 30.09057 | 31019 ft | 460 kts | 327° |
| 2026-04-24 22:15 | 42.84002 | 30.03939 | 31005 ft | 462 kts | 327° |
| 2026-04-24 22:16 | 42.89200 | 29.98808 | 31010 ft | 460 kts | 327° |
| 2026-04-24 22:16 | 42.94371 | 29.93694 | 30995 ft | 458 kts | 327° |
| 2026-04-24 22:17 | 42.99511 | 29.88602 | 30998 ft | 455 kts | 327° |
| 2026-04-24 22:17 | 43.04628 | 29.83523 | 30981 ft | 454 kts | 326° |
| 2026-04-24 22:18 | 43.09743 | 29.78437 | 30995 ft | 455 kts | 326° |
| 2026-04-24 22:18 | 43.14870 | 29.73327 | 31020 ft | 457 kts | 326° |
| 2026-04-24 22:19 | 43.20013 | 29.68190 | 30999 ft | 458 kts | 326° |
| 2026-04-24 22:19 | 43.25162 | 29.63035 | 30996 ft | 458 kts | 326° |
| 2026-04-24 22:20 | 43.30313 | 29.57867 | 30995 ft | 458 kts | 326° |
| 2026-04-24 22:20 | 43.35423 | 29.52730 | 30994 ft | 458 kts | 326° |
| 2026-04-24 22:21 | 43.40557 | 29.47557 | 30991 ft | 457 kts | 326° |
| 2026-04-24 22:21 | 43.45687 | 29.42377 | 30998 ft | 456 kts | 326° |
| 2026-04-24 22:22 | 43.50806 | 29.37198 | 30995 ft | 456 kts | 326° |
| 2026-04-24 22:22 | 43.55911 | 29.32021 | 30989 ft | 455 kts | 326° |
| 2026-04-24 22:23 | 43.61007 | 29.26842 | 30959 ft | 455 kts | 326° |
| 2026-04-24 22:23 | 43.66102 | 29.21653 | 30985 ft | 455 kts | 326° |
| 2026-04-24 22:24 | 43.71206 | 29.16444 | 30986 ft | 456 kts | 326° |
| 2026-04-24 22:24 | 43.76173 | 29.10976 | 30998 ft | 457 kts | 322° |
| 2026-04-24 22:25 | 43.80978 | 29.05223 | 30964 ft | 456 kts | 321° |
| 2026-04-24 22:25 | 43.85774 | 28.99462 | 30985 ft | 456 kts | 321° |
| 2026-04-24 22:26 | 43.90542 | 28.93752 | 30978 ft | 456 kts | 321° |
| 2026-04-24 22:26 | 43.95342 | 28.88001 | 30978 ft | 456 kts | 321° |
| 2026-04-24 22:27 | 44.00144 | 28.82237 | 30967 ft | 456 kts | 321° |
| 2026-04-24 22:27 | 44.04944 | 28.76461 | 30993 ft | 457 kts | 321° |
| 2026-04-24 22:28 | 44.09752 | 28.70663 | 30983 ft | 457 kts | 321° |
| 2026-04-24 22:28 | 44.14552 | 28.64859 | 30985 ft | 457 kts | 321° |
| 2026-04-24 22:29 | 44.21736 | 28.56150 | 30983 ft | 456 kts | 321° |
| 2026-04-24 22:29 | 44.26484 | 28.50279 | 30982 ft | 457 kts | 317° |
| 2026-04-24 22:30 | 44.30606 | 28.43503 | 30994 ft | 460 kts | 308° |
| 2026-04-24 22:30 | 44.34055 | 28.35948 | 30987 ft | 461 kts | 305° |
| 2026-04-24 22:31 | 44.37455 | 28.28351 | 30992 ft | 461 kts | 305° |
| 2026-04-24 22:31 | 44.40869 | 28.20765 | 31001 ft | 461 kts | 305° |
| 2026-04-24 22:32 | 44.44287 | 28.13187 | 30993 ft | 460 kts | 305° |
| 2026-04-24 22:32 | 44.47694 | 28.05622 | 30978 ft | 459 kts | 305° |
| 2026-04-24 22:33 | 44.51069 | 27.98104 | 30991 ft | 458 kts | 305° |
| 2026-04-24 22:33 | 44.54459 | 27.90531 | 30995 ft | 458 kts | 305° |
| 2026-04-24 22:34 | 44.57842 | 27.82956 | 30996 ft | 458 kts | 305° |
| 2026-04-24 22:34 | 44.61226 | 27.75356 | 30994 ft | 459 kts | 305° |
| 2026-04-24 22:35 | 44.64611 | 27.67735 | 30999 ft | 460 kts | 305° |
| 2026-04-24 22:35 | 44.67967 | 27.60066 | 31006 ft | 461 kts | 304° |
| 2026-04-24 22:36 | 44.71238 | 27.52383 | 31006 ft | 461 kts | 304° |
| 2026-04-24 22:36 | 44.74525 | 27.44629 | 31003 ft | 462 kts | 304° |
| 2026-04-24 22:37 | 44.77813 | 27.36876 | 31005 ft | 462 kts | 304° |
| 2026-04-24 22:37 | 44.81109 | 27.29096 | 31011 ft | 462 kts | 304° |
| 2026-04-24 22:38 | 44.84397 | 27.21318 | 31011 ft | 462 kts | 303° |
| 2026-04-24 22:38 | 44.87685 | 27.13519 | 31012 ft | 462 kts | 303° |
| 2026-04-24 22:39 | 44.90961 | 27.05725 | 31016 ft | 462 kts | 303° |
| 2026-04-24 22:39 | 44.94232 | 26.97922 | 31018 ft | 462 kts | 303° |
| 2026-04-24 22:40 | 44.97493 | 26.90118 | 31006 ft | 461 kts | 303° |
| 2026-04-24 22:40 | 45.00720 | 26.82377 | 31020 ft | 460 kts | 303° |
| 2026-04-24 22:41 | 45.03960 | 26.74584 | 31027 ft | 460 kts | 303° |
| 2026-04-24 22:41 | 45.06669 | 26.68051 | 31032 ft | 460 kts | 303° |
| 2026-04-24 22:42 | 45.10422 | 26.58975 | 31020 ft | 460 kts | 303° |
| 2026-04-24 22:42 | 45.13648 | 26.51149 | 31036 ft | 460 kts | 303° |
| 2026-04-24 22:43 | 45.16874 | 26.43302 | 31043 ft | 461 kts | 303° |
| 2026-04-24 22:43 | 45.20097 | 26.35441 | 31043 ft | 461 kts | 302° |
| 2026-04-24 22:44 | 45.23316 | 26.27565 | 31033 ft | 462 kts | 302° |
| 2026-04-24 22:44 | 45.26533 | 26.19675 | 31040 ft | 462 kts | 302° |
| 2026-04-24 22:45 | 45.29726 | 26.11821 | 31043 ft | 462 kts | 302° |
| 2026-04-24 22:45 | 45.32936 | 26.03901 | 31066 ft | 462 kts | 302° |
| 2026-04-24 22:46 | 45.36140 | 25.95972 | 31061 ft | 462 kts | 302° |
| 2026-04-24 22:46 | 45.39333 | 25.88052 | 31063 ft | 461 kts | 302° |
| 2026-04-24 22:47 | 45.42519 | 25.80124 | 31070 ft | 461 kts | 302° |
| 2026-04-24 22:47 | 45.45689 | 25.72211 | 31090 ft | 460 kts | 302° |
| 2026-04-24 22:48 | 45.48827 | 25.64359 | 31068 ft | 458 kts | 303° |
| 2026-04-24 22:48 | 45.51971 | 25.56471 | 31079 ft | 456 kts | 303° |
| 2026-04-24 22:49 | 45.55094 | 25.48612 | 31071 ft | 455 kts | 303° |
| 2026-04-24 22:49 | 45.58208 | 25.40754 | 31067 ft | 454 kts | 302° |
| 2026-04-24 22:50 | 45.61311 | 25.32899 | 31081 ft | 453 kts | 303° |
| 2026-04-24 22:50 | 45.64402 | 25.25056 | 31076 ft | 453 kts | 303° |
| 2026-04-24 22:51 | 45.67492 | 25.17191 | 31079 ft | 454 kts | 302° |
| 2026-04-24 22:51 | 45.70579 | 25.09311 | 31082 ft | 454 kts | 302° |
| 2026-04-24 22:52 | 45.73146 | 25.02741 | 31062 ft | 454 kts | 302° |
| 2026-04-24 22:52 | 45.76749 | 24.93595 | 31064 ft | 452 kts | 305° |
| 2026-04-24 22:53 | 45.80415 | 24.86333 | 31065 ft | 449 kts | 310° |
| 2026-04-24 22:53 | 45.84218 | 24.79219 | 31053 ft | 449 kts | 310° |
| 2026-04-24 22:54 | 45.87385 | 24.73243 | 31049 ft | 449 kts | 310° |
| 2026-04-24 22:54 | 45.91126 | 24.66135 | 31052 ft | 449 kts | 310° |
| 2026-04-24 22:55 | 45.94885 | 24.58965 | 31055 ft | 449 kts | 309° |
| 2026-04-24 22:55 | 45.98645 | 24.51771 | 31049 ft | 450 kts | 309° |
| 2026-04-24 22:56 | 46.02397 | 24.44574 | 31033 ft | 449 kts | 309° |
| 2026-04-24 22:56 | 46.06144 | 24.37371 | 31046 ft | 450 kts | 309° |
| 2026-04-24 22:57 | 46.09888 | 24.30154 | 31052 ft | 450 kts | 309° |
| 2026-04-24 22:57 | 46.13637 | 24.22912 | 31040 ft | 450 kts | 309° |
| 2026-04-24 22:58 | 46.17372 | 24.15676 | 31052 ft | 450 kts | 309° |
| 2026-04-24 22:58 | 46.21110 | 24.08415 | 31047 ft | 450 kts | 309° |
| 2026-04-24 22:59 | 46.24815 | 24.01200 | 31043 ft | 450 kts | 309° |
| 2026-04-24 23:00 | 46.30401 | 23.90287 | 31048 ft | 450 kts | 309° |
| 2026-04-24 23:00 | 46.34120 | 23.82998 | 31048 ft | 450 kts | 309° |
| 2026-04-24 23:01 | 46.37836 | 23.75695 | 31065 ft | 451 kts | 309° |
| 2026-04-24 23:01 | 46.41557 | 23.68362 | 31052 ft | 452 kts | 309° |
| 2026-04-24 23:02 | 46.45277 | 23.61016 | 31060 ft | 452 kts | 309° |
| 2026-04-24 23:02 | 46.48995 | 23.53650 | 31047 ft | 453 kts | 309° |
| 2026-04-24 23:03 | 46.52719 | 23.46256 | 31054 ft | 454 kts | 308° |
| 2026-04-24 23:03 | 46.56443 | 23.38840 | 31079 ft | 454 kts | 308° |
| 2026-04-24 23:04 | 46.60166 | 23.31406 | 31068 ft | 455 kts | 308° |
| 2026-04-24 23:04 | 46.63867 | 23.23996 | 31067 ft | 455 kts | 308° |
| 2026-04-24 23:05 | 46.67582 | 23.16538 | 31075 ft | 455 kts | 308° |
| 2026-04-24 23:05 | 46.71296 | 23.09063 | 31085 ft | 455 kts | 308° |
| 2026-04-24 23:06 | 46.74964 | 23.01550 | 31069 ft | 455 kts | 306° |
| 2026-04-24 23:06 | 46.78388 | 22.93809 | 31056 ft | 453 kts | 305° |
| 2026-04-24 23:07 | 46.81762 | 22.86047 | 31063 ft | 453 kts | 305° |
| 2026-04-24 23:07 | 46.85144 | 22.78282 | 31066 ft | 453 kts | 305° |
| 2026-04-24 23:08 | 46.88507 | 22.70569 | 31066 ft | 453 kts | 305° |
| 2026-04-24 23:08 | 46.91893 | 22.62791 | 31037 ft | 454 kts | 305° |
| 2026-04-24 23:09 | 46.95279 | 22.54989 | 31049 ft | 454 kts | 305° |
| 2026-04-24 23:09 | 46.98662 | 22.47171 | 31042 ft | 455 kts | 305° |
| 2026-04-24 23:10 | 47.02048 | 22.39325 | 31037 ft | 455 kts | 305° |
| 2026-04-24 23:10 | 47.05431 | 22.31463 | 31025 ft | 456 kts | 305° |
| 2026-04-24 23:11 | 47.08805 | 22.23597 | 31020 ft | 455 kts | 304° |
| 2026-04-24 23:11 | 47.12168 | 22.15735 | 31037 ft | 455 kts | 304° |
| 2026-04-24 23:12 | 47.15504 | 22.07916 | 31016 ft | 454 kts | 304° |
| 2026-04-24 23:12 | 47.18844 | 22.00061 | 31016 ft | 453 kts | 304° |
| 2026-04-24 23:13 | 47.22175 | 21.92211 | 31003 ft | 452 kts | 304° |
| 2026-04-24 23:13 | 47.25439 | 21.84307 | 31003 ft | 453 kts | 301° |
| 2026-04-24 23:14 | 47.28353 | 21.76089 | 31014 ft | 453 kts | 300° |
| 2026-04-24 23:14 | 47.31244 | 21.67813 | 31021 ft | 454 kts | 300° |
| 2026-04-24 23:15 | 47.34141 | 21.59528 | 31006 ft | 454 kts | 300° |
| 2026-04-24 23:15 | 47.37027 | 21.51284 | 30998 ft | 455 kts | 300° |
| 2026-04-24 23:16 | 47.39931 | 21.42970 | 31002 ft | 456 kts | 300° |
| 2026-04-24 23:16 | 47.42835 | 21.34629 | 30999 ft | 457 kts | 300° |
| 2026-04-24 23:17 | 47.45733 | 21.26281 | 30987 ft | 457 kts | 300° |
| 2026-04-24 23:17 | 47.48621 | 21.17930 | 30997 ft | 456 kts | 300° |
| 2026-04-24 23:18 | 47.51503 | 21.09572 | 30997 ft | 455 kts | 300° |
| 2026-04-24 23:18 | 47.54376 | 21.01215 | 30996 ft | 455 kts | 300° |
| 2026-04-24 23:19 | 47.57219 | 20.92917 | 30992 ft | 454 kts | 299° |
| 2026-04-24 23:19 | 47.60071 | 20.84566 | 31002 ft | 454 kts | 299° |
| 2026-04-24 23:20 | 47.62916 | 20.76208 | 31004 ft | 454 kts | 299° |
| 2026-04-24 23:20 | 47.65754 | 20.67846 | 30998 ft | 453 kts | 299° |
| 2026-04-24 23:21 | 47.68576 | 20.59502 | 30997 ft | 452 kts | 299° |
| 2026-04-24 23:21 | 47.71389 | 20.51157 | 30996 ft | 451 kts | 299° |
| 2026-04-24 23:22 | 47.74192 | 20.42818 | 31002 ft | 451 kts | 299° |
| 2026-04-24 23:22 | 47.76988 | 20.34472 | 31001 ft | 451 kts | 299° |
| 2026-04-24 23:23 | 47.79777 | 20.26119 | 30997 ft | 451 kts | 299° |
| 2026-04-24 23:23 | 47.82561 | 20.17753 | 30996 ft | 451 kts | 298° |
| 2026-04-24 23:24 | 47.85342 | 20.09370 | 31008 ft | 452 kts | 298° |
| 2026-04-24 23:24 | 47.88120 | 20.00969 | 31011 ft | 453 kts | 298° |
| 2026-04-24 23:25 | 47.90898 | 19.92541 | 30998 ft | 453 kts | 298° |
| 2026-04-24 23:25 | 47.93668 | 19.84106 | 30990 ft | 453 kts | 298° |
| 2026-04-24 23:26 | 47.96438 | 19.75645 | 31017 ft | 454 kts | 298° |
| 2026-04-24 23:26 | 47.99203 | 19.67170 | 31011 ft | 454 kts | 298° |
| 2026-04-24 23:27 | 48.01961 | 19.58689 | 31009 ft | 454 kts | 298° |
| 2026-04-24 23:27 | 48.04715 | 19.50191 | 31012 ft | 454 kts | 298° |
| 2026-04-24 23:28 | 48.07466 | 19.41678 | 31012 ft | 455 kts | 298° |
| 2026-04-24 23:28 | 48.10242 | 19.33175 | 31024 ft | 455 kts | 299° |
| 2026-04-24 23:29 | 48.13220 | 19.24908 | 31012 ft | 454 kts | 301° |
| 2026-04-24 23:29 | 48.16267 | 19.16614 | 31015 ft | 453 kts | 300° |
| 2026-04-24 23:30 | 48.19272 | 19.08316 | 31017 ft | 452 kts | 300° |
| 2026-04-24 23:30 | 48.22246 | 19.00005 | 31015 ft | 451 kts | 300° |
| 2026-04-24 23:31 | 48.25196 | 18.91710 | 31015 ft | 450 kts | 300° |
| 2026-04-24 23:31 | 48.28138 | 18.83416 | 31018 ft | 450 kts | 300° |
| 2026-04-24 23:32 | 48.31073 | 18.75117 | 31012 ft | 450 kts | 299° |
| 2026-04-24 23:32 | 48.34000 | 18.66815 | 31015 ft | 450 kts | 299° |
| 2026-04-24 23:33 | 48.36908 | 18.58540 | 31022 ft | 451 kts | 299° |
| 2026-04-24 23:33 | 48.39835 | 18.50185 | 31021 ft | 451 kts | 299° |
| 2026-04-24 23:34 | 48.42757 | 18.41819 | 31020 ft | 452 kts | 299° |
| 2026-04-24 23:34 | 48.45677 | 18.33429 | 31011 ft | 452 kts | 299° |
| 2026-04-24 23:35 | 48.48593 | 18.25026 | 31023 ft | 452 kts | 299° |
| 2026-04-24 23:35 | 48.51507 | 18.16599 | 31122 ft | 455 kts | 298° |
| 2026-04-24 23:35 | 48.52965 | 18.12370 | 31485 ft | 453 kts | 298° |
| 2026-04-24 23:36 | 48.54405 | 18.08187 | 32029 ft | 447 kts | 298° |
| 2026-04-24 23:36 | 48.55831 | 18.04040 | 32474 ft | 443 kts | 298° |
| 2026-04-24 23:36 | 48.57243 | 17.99924 | 32809 ft | 441 kts | 298° |
| 2026-04-24 23:36 | 48.58654 | 17.95809 | 32963 ft | 442 kts | 298° |
| 2026-04-24 23:37 | 48.60069 | 17.91677 | 33029 ft | 443 kts | 298° |
| 2026-04-24 23:37 | 48.64287 | 17.79314 | 33035 ft | 440 kts | 298° |
| 2026-04-24 23:38 | 48.67076 | 17.71103 | 33038 ft | 438 kts | 298° |
| 2026-04-24 23:38 | 48.69854 | 17.62901 | 33025 ft | 438 kts | 298° |
| 2026-04-24 23:39 | 48.72632 | 17.54672 | 33035 ft | 439 kts | 297° |
| 2026-04-24 23:39 | 48.75412 | 17.46410 | 33045 ft | 441 kts | 297° |
| 2026-04-24 23:40 | 48.77730 | 17.39499 | 33043 ft | 443 kts | 297° |
| 2026-04-24 23:40 | 48.80521 | 17.31155 | 33047 ft | 444 kts | 297° |
| 2026-04-24 23:41 | 48.83315 | 17.22777 | 33054 ft | 445 kts | 297° |
| 2026-04-24 23:41 | 48.86118 | 17.14392 | 33049 ft | 445 kts | 298° |
| 2026-04-24 23:42 | 48.89044 | 17.06110 | 33056 ft | 444 kts | 299° |
| 2026-04-24 23:42 | 48.91992 | 16.97873 | 33060 ft | 443 kts | 299° |
| 2026-04-24 23:43 | 48.94917 | 16.89634 | 33069 ft | 442 kts | 298° |
| 2026-04-24 23:43 | 48.97823 | 16.81385 | 33070 ft | 442 kts | 298° |
| 2026-04-24 23:44 | 49.00699 | 16.73178 | 33075 ft | 442 kts | 298° |
| 2026-04-24 23:44 | 49.03588 | 16.64908 | 33067 ft | 442 kts | 298° |
| 2026-04-24 23:45 | 49.06470 | 16.56631 | 33068 ft | 442 kts | 298° |
| 2026-04-24 23:45 | 49.09330 | 16.48392 | 33072 ft | 441 kts | 298° |
| 2026-04-24 23:46 | 49.12197 | 16.40106 | 33079 ft | 442 kts | 298° |
| 2026-04-24 23:46 | 49.15059 | 16.31808 | 33074 ft | 442 kts | 297° |
| 2026-04-24 23:47 | 49.17918 | 16.23491 | 33079 ft | 442 kts | 297° |
| 2026-04-24 23:47 | 49.20773 | 16.15160 | 33078 ft | 442 kts | 297° |
| 2026-04-24 23:48 | 49.23625 | 16.06811 | 33082 ft | 442 kts | 297° |
| 2026-04-24 23:48 | 49.26463 | 15.98474 | 33094 ft | 442 kts | 297° |
| 2026-04-24 23:49 | 49.29299 | 15.90120 | 33091 ft | 441 kts | 297° |
| 2026-04-24 23:49 | 49.32122 | 15.81771 | 33096 ft | 441 kts | 297° |
| 2026-04-24 23:50 | 49.34941 | 15.73410 | 33110 ft | 441 kts | 297° |
| 2026-04-24 23:50 | 49.37749 | 15.65054 | 33103 ft | 440 kts | 297° |
| 2026-04-24 23:51 | 49.40542 | 15.56715 | 33099 ft | 438 kts | 297° |
| 2026-04-24 23:51 | 49.43302 | 15.48448 | 33102 ft | 437 kts | 297° |
| 2026-04-24 23:52 | 49.46067 | 15.40138 | 33108 ft | 436 kts | 297° |
| 2026-04-24 23:52 | 49.48826 | 15.31818 | 33102 ft | 437 kts | 296° |
| 2026-04-24 23:53 | 49.51584 | 15.23474 | 33110 ft | 438 kts | 296° |
| 2026-04-24 23:53 | 49.54346 | 15.15092 | 33115 ft | 440 kts | 296° |
| 2026-04-24 23:54 | 49.57108 | 15.06679 | 33113 ft | 441 kts | 296° |
| 2026-04-24 23:54 | 49.59860 | 14.98271 | 33112 ft | 442 kts | 296° |
| 2026-04-24 23:55 | 49.62621 | 14.89806 | 33114 ft | 442 kts | 296° |
| 2026-04-24 23:55 | 49.65377 | 14.81328 | 33103 ft | 441 kts | 296° |
| 2026-04-24 23:56 | 49.68122 | 14.72857 | 33108 ft | 441 kts | 296° |
| 2026-04-24 23:56 | 49.70840 | 14.64438 | 33104 ft | 440 kts | 296° |
| 2026-04-24 23:57 | 49.73564 | 14.55970 | 33111 ft | 439 kts | 295° |
| 2026-04-24 23:57 | 49.76274 | 14.47520 | 33100 ft | 438 kts | 295° |
| 2026-04-24 23:58 | 49.78971 | 14.39084 | 33098 ft | 437 kts | 295° |
| 2026-04-24 23:58 | 49.81657 | 14.30651 | 33105 ft | 436 kts | 295° |
| 2026-04-24 23:59 | 49.84333 | 14.22221 | 33100 ft | 435 kts | 295° |
| 2026-04-24 23:59 | 49.87002 | 14.13786 | 33100 ft | 436 kts | 295° |
| 2026-04-25 00:00 | 49.89667 | 14.05337 | 33110 ft | 436 kts | 295° |
| 2026-04-25 00:00 | 49.92501 | 13.96991 | 33111 ft | 438 kts | 298° |
| 2026-04-25 00:01 | 49.95459 | 13.88787 | 33103 ft | 439 kts | 298° |
| 2026-04-25 00:01 | 49.98439 | 13.80506 | 33098 ft | 439 kts | 298° |
| 2026-04-25 00:02 | 50.01408 | 13.72177 | 33095 ft | 440 kts | 297° |
| 2026-04-25 00:02 | 50.04364 | 13.63837 | 33102 ft | 440 kts | 297° |
| 2026-04-25 00:03 | 50.07297 | 13.55530 | 33100 ft | 440 kts | 297° |
| 2026-04-25 00:03 | 50.10241 | 13.47166 | 33106 ft | 440 kts | 297° |
| 2026-04-25 00:04 | 50.13174 | 13.38807 | 33095 ft | 439 kts | 297° |
| 2026-04-25 00:04 | 50.16090 | 13.30471 | 33094 ft | 437 kts | 297° |
| 2026-04-25 00:05 | 50.18992 | 13.22146 | 33097 ft | 436 kts | 297° |
| 2026-04-25 00:05 | 50.21884 | 13.13822 | 33106 ft | 435 kts | 297° |
| 2026-04-25 00:06 | 50.24763 | 13.05509 | 33109 ft | 435 kts | 297° |
| 2026-04-25 00:06 | 50.27641 | 12.97169 | 33095 ft | 436 kts | 297° |
| 2026-04-25 00:07 | 50.30497 | 12.88869 | 33104 ft | 436 kts | 296° |
| 2026-04-25 00:07 | 50.33366 | 12.80501 | 33103 ft | 436 kts | 296° |
| 2026-04-25 00:08 | 50.36230 | 12.72123 | 33104 ft | 437 kts | 296° |
| 2026-04-25 00:08 | 50.39098 | 12.63728 | 33111 ft | 437 kts | 297° |
| 2026-04-25 00:09 | 50.42230 | 12.55547 | 33121 ft | 438 kts | 300° |
| 2026-04-25 00:09 | 50.45432 | 12.47430 | 33108 ft | 438 kts | 300° |
| 2026-04-25 00:10 | 50.48625 | 12.39298 | 33123 ft | 437 kts | 299° |
| 2026-04-25 00:10 | 50.51804 | 12.31137 | 33113 ft | 437 kts | 299° |
| 2026-04-25 00:11 | 50.54430 | 12.24363 | 33107 ft | 437 kts | 299° |
| 2026-04-25 00:11 | 50.58101 | 12.14860 | 33098 ft | 437 kts | 299° |
| 2026-04-25 00:12 | 50.61248 | 12.06688 | 33114 ft | 437 kts | 299° |
| 2026-04-25 00:12 | 50.64392 | 11.98495 | 33116 ft | 437 kts | 299° |
| 2026-04-25 00:13 | 50.67537 | 11.90277 | 33112 ft | 438 kts | 299° |
| 2026-04-25 00:13 | 50.70680 | 11.82036 | 33116 ft | 438 kts | 299° |
| 2026-04-25 00:14 | 50.73819 | 11.73779 | 33114 ft | 439 kts | 298° |
| 2026-04-25 00:14 | 50.76961 | 11.65490 | 33128 ft | 439 kts | 298° |
| 2026-04-25 00:15 | 50.80091 | 11.57204 | 33123 ft | 439 kts | 298° |
| 2026-04-25 00:15 | 50.83215 | 11.48908 | 33127 ft | 439 kts | 298° |
| 2026-04-25 00:16 | 50.86328 | 11.40616 | 33127 ft | 438 kts | 298° |
| 2026-04-25 00:16 | 50.89416 | 11.32361 | 33116 ft | 438 kts | 298° |
| 2026-04-25 00:17 | 50.92518 | 11.24044 | 33124 ft | 438 kts | 298° |
| 2026-04-25 00:17 | 50.95612 | 11.15721 | 33135 ft | 438 kts | 298° |
| 2026-04-25 00:18 | 50.98704 | 11.07375 | 33128 ft | 439 kts | 298° |
| 2026-04-25 00:18 | 51.01795 | 10.99005 | 33131 ft | 439 kts | 298° |
| 2026-04-25 00:19 | 51.04859 | 10.90682 | 33126 ft | 439 kts | 297° |
| 2026-04-25 00:19 | 51.07940 | 10.82286 | 33153 ft | 440 kts | 297° |
| 2026-04-25 00:20 | 51.11019 | 10.73867 | 33135 ft | 440 kts | 297° |
| 2026-04-25 00:20 | 51.14089 | 10.65444 | 33128 ft | 440 kts | 297° |
| 2026-04-25 00:21 | 51.17153 | 10.57011 | 33123 ft | 440 kts | 297° |
| 2026-04-25 00:21 | 51.20209 | 10.48570 | 33118 ft | 439 kts | 297° |
| 2026-04-25 00:22 | 51.23260 | 10.40118 | 33129 ft | 440 kts | 297° |
| 2026-04-25 00:22 | 51.26033 | 10.31441 | 33128 ft | 437 kts | 289° |
| 2026-04-25 00:23 | 51.28200 | 10.22358 | 33136 ft | 438 kts | 289° |
| 2026-04-25 00:23 | 51.30368 | 10.13303 | 33133 ft | 439 kts | 289° |
| 2026-04-25 00:24 | 51.32558 | 10.04184 | 33144 ft | 440 kts | 289° |
| 2026-04-25 00:24 | 51.34751 | 9.95043 | 33147 ft | 440 kts | 289° |
| 2026-04-25 00:25 | 51.36936 | 9.85895 | 33146 ft | 440 kts | 289° |
| 2026-04-25 00:25 | 51.39113 | 9.76745 | 33149 ft | 440 kts | 289° |
| 2026-04-25 00:26 | 51.41281 | 9.67592 | 33182 ft | 439 kts | 289° |
| 2026-04-25 00:26 | 51.43440 | 9.58441 | 33147 ft | 438 kts | 288° |
| 2026-04-25 00:27 | 51.45568 | 9.49383 | 33164 ft | 437 kts | 288° |
| 2026-04-25 00:27 | 51.47699 | 9.40267 | 33168 ft | 436 kts | 288° |
| 2026-04-25 00:28 | 51.49821 | 9.31155 | 33161 ft | 436 kts | 288° |
| 2026-04-25 00:28 | 51.51938 | 9.22027 | 33160 ft | 436 kts | 288° |
| 2026-04-25 00:29 | 51.54047 | 9.12892 | 33161 ft | 436 kts | 288° |
| 2026-04-25 00:29 | 51.55810 | 9.05224 | 33175 ft | 437 kts | 288° |
| 2026-04-25 00:30 | 51.57909 | 8.96060 | 33176 ft | 437 kts | 288° |
| 2026-04-25 00:30 | 51.59990 | 8.86938 | 33192 ft | 438 kts | 288° |
| 2026-04-25 00:31 | 51.62080 | 8.77737 | 33183 ft | 438 kts | 288° |
| 2026-04-25 00:31 | 51.64163 | 8.68522 | 33189 ft | 438 kts | 288° |
| 2026-04-25 00:32 | 51.66240 | 8.59296 | 33168 ft | 438 kts | 288° |
| 2026-04-25 00:32 | 51.68312 | 8.50053 | 33190 ft | 438 kts | 288° |
| 2026-04-25 00:33 | 51.70376 | 8.40801 | 33189 ft | 438 kts | 288° |
| 2026-04-25 00:33 | 51.72430 | 8.31556 | 33192 ft | 438 kts | 287° |
| 2026-04-25 00:34 | 51.74478 | 8.22295 | 33171 ft | 438 kts | 287° |
| 2026-04-25 00:34 | 51.76520 | 8.13021 | 33215 ft | 438 kts | 287° |
| 2026-04-25 00:35 | 51.78541 | 8.03803 | 33196 ft | 438 kts | 287° |
| 2026-04-25 00:35 | 51.80562 | 7.94540 | 33193 ft | 437 kts | 287° |
| 2026-04-25 00:36 | 51.82573 | 7.85283 | 33189 ft | 436 kts | 287° |
| 2026-04-25 00:36 | 51.84573 | 7.76040 | 33190 ft | 435 kts | 287° |
| 2026-04-25 00:37 | 51.86797 | 7.66931 | 33200 ft | 437 kts | 293° |
| 2026-04-25 00:37 | 51.89468 | 7.58094 | 33206 ft | 437 kts | 293° |
| 2026-04-25 00:38 | 51.92122 | 7.49220 | 33197 ft | 438 kts | 292° |
| 2026-04-25 00:38 | 51.94759 | 7.40318 | 33213 ft | 438 kts | 292° |
| 2026-04-25 00:39 | 51.97389 | 7.31390 | 33210 ft | 439 kts | 292° |
| 2026-04-25 00:39 | 51.99998 | 7.22500 | 33201 ft | 439 kts | 292° |
| 2026-04-25 00:40 | 52.02618 | 7.13540 | 33203 ft | 439 kts | 292° |
| 2026-04-25 00:40 | 52.05233 | 7.04568 | 33208 ft | 439 kts | 292° |
| 2026-04-25 00:41 | 52.07833 | 6.95602 | 33208 ft | 438 kts | 292° |
| 2026-04-25 00:41 | 52.10359 | 6.86581 | 33218 ft | 437 kts | 291° |
| 2026-04-25 00:42 | 52.12879 | 6.77653 | 33206 ft | 436 kts | 291° |
| 2026-04-25 00:42 | 52.15099 | 6.68525 | 33217 ft | 433 kts | 287° |
| 2026-04-25 00:43 | 52.17110 | 6.59288 | 33212 ft | 432 kts | 287° |
| 2026-04-25 00:43 | 52.19125 | 6.50067 | 33215 ft | 432 kts | 287° |
| 2026-04-25 00:44 | 52.21148 | 6.40831 | 33217 ft | 433 kts | 287° |
| 2026-04-25 00:44 | 52.23170 | 6.31584 | 33217 ft | 433 kts | 287° |
| 2026-04-25 00:45 | 52.25185 | 6.22315 | 33217 ft | 433 kts | 287° |
| 2026-04-25 00:45 | 52.27200 | 6.13032 | 33219 ft | 434 kts | 287° |
| 2026-04-25 00:46 | 52.29209 | 6.03740 | 33217 ft | 434 kts | 287° |
| 2026-04-25 00:47 | 52.32210 | 5.89782 | 33217 ft | 434 kts | 287° |
| 2026-04-25 00:47 | 52.34202 | 5.80460 | 33219 ft | 434 kts | 287° |
| 2026-04-25 00:48 | 52.36190 | 5.71117 | 33223 ft | 434 kts | 287° |
| 2026-04-25 00:48 | 52.38171 | 5.61766 | 33211 ft | 434 kts | 287° |
| 2026-04-25 00:49 | 52.40129 | 5.52475 | 33223 ft | 435 kts | 287° |
| 2026-04-25 00:49 | 52.42099 | 5.43080 | 33203 ft | 438 kts | 287° |
| 2026-04-25 00:50 | 52.44075 | 5.33615 | 33224 ft | 441 kts | 287° |
| 2026-04-25 00:50 | 52.46060 | 5.24069 | 33222 ft | 443 kts | 287° |
| 2026-04-25 00:51 | 52.48045 | 5.14471 | 33210 ft | 445 kts | 287° |
| 2026-04-25 00:51 | 52.50027 | 5.04844 | 33219 ft | 445 kts | 287° |
| 2026-04-25 00:52 | 52.52002 | 4.95203 | 33214 ft | 445 kts | 288° |
| 2026-04-25 00:52 | 52.53971 | 4.85555 | 33240 ft | 446 kts | 287° |
| 2026-04-25 00:53 | 52.56082 | 4.75956 | 33234 ft | 447 kts | 290° |
| 2026-04-25 00:53 | 52.58299 | 4.66462 | 33209 ft | 448 kts | 290° |
| 2026-04-25 00:54 | 52.60513 | 4.56879 | 33215 ft | 448 kts | 289° |
| 2026-04-25 00:54 | 52.62700 | 4.47269 | 33226 ft | 448 kts | 289° |
| 2026-04-25 00:55 | 52.64868 | 4.37651 | 33227 ft | 448 kts | 289° |
| 2026-04-25 00:55 | 52.67027 | 4.28027 | 33229 ft | 448 kts | 289° |
| 2026-04-25 00:56 | 52.69180 | 4.18386 | 33243 ft | 448 kts | 289° |
| 2026-04-25 00:56 | 52.71342 | 4.08660 | 33241 ft | 456 kts | 290° |
| 2026-04-25 00:57 | 52.73535 | 3.98753 | 33226 ft | 463 kts | 290° |
| 2026-04-25 00:57 | 52.75747 | 3.88715 | 33248 ft | 467 kts | 290° |
| 2026-04-25 00:58 | 52.77962 | 3.78613 | 33235 ft | 468 kts | 290° |
| 2026-04-25 00:58 | 52.80152 | 3.68572 | 33230 ft | 467 kts | 290° |
| 2026-04-25 00:59 | 52.82340 | 3.58494 | 33235 ft | 464 kts | 290° |
| 2026-04-25 00:59 | 52.84505 | 3.48468 | 33225 ft | 462 kts | 291° |
| 2026-04-25 01:00 | 52.86659 | 3.38450 | 33236 ft | 462 kts | 290° |
| 2026-04-25 01:00 | 52.88803 | 3.28425 | 33251 ft | 463 kts | 290° |
| 2026-04-25 01:01 | 52.90949 | 3.18352 | 33247 ft | 464 kts | 290° |
| 2026-04-25 01:01 | 52.92672 | 3.08037 | 33254 ft | 465 kts | 283° |
| 2026-04-25 01:02 | 52.94016 | 2.97511 | 33234 ft | 466 kts | 284° |
| 2026-04-25 01:02 | 52.95367 | 2.86976 | 33242 ft | 467 kts | 284° |
| 2026-04-25 01:03 | 52.96731 | 2.76444 | 33242 ft | 467 kts | 284° |
| 2026-04-25 01:03 | 52.98083 | 2.65973 | 33245 ft | 468 kts | 284° |
| 2026-04-25 01:04 | 52.99453 | 2.55296 | 33251 ft | 477 kts | 284° |
| 2026-04-25 01:04 | 53.00829 | 2.44485 | 33232 ft | 477 kts | 284° |
| 2026-04-25 01:05 | 53.02182 | 2.33736 | 33238 ft | 474 kts | 284° |
| 2026-04-25 01:05 | 53.03519 | 2.23046 | 33240 ft | 472 kts | 284° |
| 2026-04-25 01:06 | 53.04845 | 2.12388 | 33242 ft | 470 kts | 284° |
| 2026-04-25 01:06 | 53.06160 | 2.01728 | 33216 ft | 470 kts | 284° |
| 2026-04-25 01:07 | 53.07454 | 1.91167 | 33230 ft | 468 kts | 284° |
| 2026-04-25 01:07 | 53.08742 | 1.80578 | 33250 ft | 466 kts | 284° |
| 2026-04-25 01:08 | 53.10018 | 1.70008 | 33238 ft | 466 kts | 284° |
| 2026-04-25 01:08 | 53.11285 | 1.59436 | 33236 ft | 465 kts | 284° |
| 2026-04-25 01:09 | 53.12540 | 1.48870 | 33241 ft | 465 kts | 283° |
| 2026-04-25 01:09 | 53.13784 | 1.38315 | 33243 ft | 465 kts | 283° |
| 2026-04-25 01:10 | 53.15019 | 1.27746 | 33247 ft | 464 kts | 283° |
| 2026-04-25 01:10 | 53.16238 | 1.17236 | 33244 ft | 464 kts | 283° |
| 2026-04-25 01:11 | 53.17455 | 1.06656 | 33242 ft | 465 kts | 283° |
| 2026-04-25 01:11 | 53.18661 | 0.96075 | 33233 ft | 464 kts | 283° |
| 2026-04-25 01:12 | 53.19859 | 0.85490 | 33243 ft | 465 kts | 282° |
| 2026-04-25 01:12 | 53.21049 | 0.74875 | 33239 ft | 465 kts | 282° |
| 2026-04-25 01:13 | 53.22231 | 0.64265 | 33243 ft | 465 kts | 282° |
| 2026-04-25 01:13 | 53.23396 | 0.53706 | 33242 ft | 465 kts | 282° |
| 2026-04-25 01:14 | 53.24562 | 0.43069 | 33234 ft | 466 kts | 282° |
| 2026-04-25 01:14 | 53.25710 | 0.32411 | 33247 ft | 467 kts | 281° |
| 2026-04-25 01:15 | 53.26848 | 0.21719 | 33243 ft | 468 kts | 281° |
| 2026-04-25 01:15 | 53.27984 | 0.10982 | 33243 ft | 469 kts | 281° |
| 2026-04-25 01:16 | 53.28921 | 0.02058 | 33243 ft | 469 kts | 281° |
| 2026-04-25 01:16 | 53.30037 | -0.08690 | 33239 ft | 469 kts | 281° |
| 2026-04-25 01:17 | 53.31321 | -0.21196 | 33241 ft | 469 kts | 281° |
| 2026-04-25 01:17 | 53.32239 | -0.30192 | 33242 ft | 469 kts | 281° |
| 2026-04-25 01:18 | 53.33326 | -0.40941 | 33240 ft | 468 kts | 281° |
| 2026-04-25 01:18 | 53.34401 | -0.51614 | 33241 ft | 468 kts | 281° |
| 2026-04-25 01:19 | 53.35479 | -0.62354 | 33242 ft | 468 kts | 280° |
| 2026-04-25 01:19 | 53.36536 | -0.73106 | 33240 ft | 467 kts | 280° |
| 2026-04-25 01:20 | 53.37571 | -0.83846 | 33239 ft | 467 kts | 280° |
| 2026-04-25 01:20 | 53.38605 | -0.94605 | 33240 ft | 467 kts | 280° |
| 2026-04-25 01:21 | 53.39670 | -1.05355 | 33227 ft | 467 kts | 280° |
| 2026-04-25 01:21 | 53.40701 | -1.16102 | 33244 ft | 467 kts | 279° |
| 2026-04-25 01:22 | 53.41700 | -1.26794 | 33244 ft | 467 kts | 279° |
| 2026-04-25 01:22 | 53.42692 | -1.37553 | 33240 ft | 467 kts | 279° |
| 2026-04-25 01:23 | 53.43703 | -1.48319 | 33247 ft | 467 kts | 279° |
| 2026-04-25 01:23 | 53.44697 | -1.59091 | 33238 ft | 467 kts | 278° |
| 2026-04-25 01:24 | 53.45672 | -1.69864 | 33240 ft | 467 kts | 278° |
| 2026-04-25 01:24 | 53.46641 | -1.80628 | 33244 ft | 466 kts | 278° |
| 2026-04-25 01:25 | 53.47588 | -1.91405 | 33244 ft | 466 kts | 278° |
| 2026-04-25 01:25 | 53.48519 | -2.02204 | 33238 ft | 466 kts | 278° |
| 2026-04-25 01:26 | 53.49437 | -2.12916 | 33237 ft | 466 kts | 278° |
| 2026-04-25 01:26 | 53.50351 | -2.23684 | 33240 ft | 466 kts | 278° |
| 2026-04-25 01:27 | 53.51261 | -2.34459 | 33237 ft | 465 kts | 278° |
| 2026-04-25 01:27 | 53.52161 | -2.45218 | 33237 ft | 465 kts | 278° |
| 2026-04-25 01:28 | 53.53494 | -2.61380 | 33226 ft | 465 kts | 277° |
| 2026-04-25 01:28 | 53.54370 | -2.72162 | 33229 ft | 466 kts | 277° |
| 2026-04-25 01:29 | 53.55237 | -2.82960 | 33228 ft | 467 kts | 277° |
| 2026-04-25 01:29 | 53.56096 | -2.93785 | 33225 ft | 467 kts | 277° |
| 2026-04-25 01:30 | 53.56947 | -3.04638 | 33222 ft | 468 kts | 277° |
| 2026-04-25 01:30 | 53.57786 | -3.15448 | 33212 ft | 469 kts | 276° |
| 2026-04-25 01:31 | 53.58621 | -3.26358 | 33224 ft | 471 kts | 276° |
| 2026-04-25 01:31 | 53.59449 | -3.37305 | 33218 ft | 472 kts | 276° |
| 2026-04-25 01:32 | 53.60270 | -3.48303 | 33214 ft | 474 kts | 276° |
| 2026-04-25 01:32 | 53.61084 | -3.59320 | 33212 ft | 474 kts | 276° |
| 2026-04-25 01:33 | 53.61855 | -3.70360 | 33210 ft | 475 kts | 274° |
| 2026-04-25 01:33 | 53.62282 | -3.81386 | 33215 ft | 475 kts | 272° |
| 2026-04-25 01:34 | 53.62713 | -3.92580 | 33216 ft | 476 kts | 273° |
| 2026-04-25 01:34 | 53.63167 | -4.03640 | 33215 ft | 477 kts | 272° |
| 2026-04-25 01:35 | 53.63596 | -4.14793 | 33212 ft | 477 kts | 272° |
| 2026-04-25 01:35 | 53.64013 | -4.25978 | 33207 ft | 478 kts | 272° |
| 2026-04-25 01:36 | 53.64420 | -4.37185 | 33211 ft | 479 kts | 271° |
| 2026-04-25 01:36 | 53.64812 | -4.48403 | 33210 ft | 480 kts | 271° |
| 2026-04-25 01:37 | 53.65197 | -4.59643 | 33211 ft | 481 kts | 271° |
| 2026-04-25 01:37 | 53.65574 | -4.70893 | 33211 ft | 481 kts | 271° |
| 2026-04-25 01:38 | 53.65943 | -4.82184 | 33210 ft | 482 kts | 271° |
| 2026-04-25 01:38 | 53.66312 | -4.93489 | 33211 ft | 483 kts | 271° |
| 2026-04-25 01:39 | 53.66686 | -5.04810 | 33204 ft | 484 kts | 271° |
| 2026-04-25 01:39 | 53.67044 | -5.16078 | 33205 ft | 484 kts | 271° |
| 2026-04-25 01:40 | 53.67375 | -5.27440 | 33211 ft | 485 kts | 270° |
| 2026-04-25 01:40 | 53.67695 | -5.38820 | 33207 ft | 486 kts | 270° |
| 2026-04-25 01:41 | 53.67738 | -5.50198 | 33199 ft | 484 kts | 263° |
| 2026-04-25 01:41 | 53.66592 | -5.61347 | 33212 ft | 481 kts | 255° |
| 2026-04-25 01:42 | 53.65071 | -5.72355 | 33204 ft | 482 kts | 255° |
| 2026-04-25 01:42 | 53.63571 | -5.83296 | 33205 ft | 482 kts | 255° |
| 2026-04-25 01:43 | 53.62077 | -5.94310 | 33203 ft | 482 kts | 255° |
| 2026-04-25 01:43 | 53.60582 | -6.05326 | 33201 ft | 482 kts | 255° |
| 2026-04-25 01:44 | 53.59080 | -6.16318 | 33197 ft | 482 kts | 255° |
| 2026-04-25 01:44 | 53.57567 | -6.27308 | 33189 ft | 482 kts | 253° |
| 2026-04-25 01:45 | 53.56045 | -6.38270 | 33206 ft | 482 kts | 253° |
| 2026-04-25 01:45 | 53.54511 | -6.49240 | 33202 ft | 482 kts | 253° |
| 2026-04-25 01:46 | 53.52965 | -6.60209 | 33200 ft | 482 kts | 253° |
| 2026-04-25 01:46 | 53.51413 | -6.71146 | 33197 ft | 481 kts | 253° |
| 2026-04-25 01:47 | 53.49858 | -6.82030 | 33202 ft | 483 kts | 252° |
| 2026-04-25 01:47 | 53.48279 | -6.92997 | 33198 ft | 483 kts | 252° |
| 2026-04-25 01:48 | 53.46688 | -7.03971 | 33193 ft | 484 kts | 252° |
| 2026-04-25 01:48 | 53.45086 | -7.14952 | 33191 ft | 485 kts | 252° |
| 2026-04-25 01:49 | 53.43471 | -7.25936 | 33208 ft | 485 kts | 252° |
| 2026-04-25 01:49 | 53.41843 | -7.36931 | 33193 ft | 486 kts | 252° |
| 2026-04-25 01:50 | 53.40201 | -7.47950 | 33188 ft | 487 kts | 252° |
| 2026-04-25 01:50 | 53.38549 | -7.58954 | 33185 ft | 487 kts | 251° |
| 2026-04-25 01:51 | 53.36888 | -7.69946 | 33180 ft | 487 kts | 251° |
| 2026-04-25 01:51 | 53.35224 | -7.80877 | 33173 ft | 488 kts | 251° |
| 2026-04-25 01:52 | 53.33537 | -7.91889 | 33167 ft | 489 kts | 251° |
| 2026-04-25 01:52 | 53.31838 | -8.02904 | 33169 ft | 489 kts | 251° |
| 2026-04-25 01:53 | 53.30129 | -8.13911 | 33172 ft | 489 kts | 251° |
| 2026-04-25 01:53 | 53.28406 | -8.24934 | 33207 ft | 489 kts | 250° |
| 2026-04-25 01:54 | 53.26676 | -8.35930 | 33172 ft | 488 kts | 250° |
| 2026-04-25 01:54 | 53.24942 | -8.46876 | 33153 ft | 486 kts | 250° |
| 2026-04-25 01:55 | 53.23216 | -8.57702 | 33151 ft | 484 kts | 250° |
| 2026-04-25 01:55 | 53.21477 | -8.68538 | 33148 ft | 483 kts | 250° |
| 2026-04-25 01:56 | 53.19730 | -8.79348 | 33155 ft | 481 kts | 250° |
| 2026-04-25 01:56 | 53.17987 | -8.90078 | 33141 ft | 477 kts | 250° |
| 2026-04-25 01:57 | 53.15378 | -9.06002 | 33139 ft | 473 kts | 249° |
| 2026-04-25 01:58 | 53.13636 | -9.16546 | 33144 ft | 472 kts | 249° |
| 2026-04-25 01:58 | 53.11877 | -9.27113 | 33150 ft | 478 kts | 249° |
| 2026-04-25 01:59 | 53.10089 | -9.37786 | 33150 ft | 483 kts | 249° |
| 2026-04-25 01:59 | 53.08277 | -9.48569 | 33134 ft | 484 kts | 249° |
| 2026-04-25 02:00 | 53.06456 | -9.59338 | 33129 ft | 483 kts | 249° |
| 2026-04-25 02:00 | 53.04627 | -9.70086 | 33183 ft | 482 kts | 249° |
| 2026-04-25 02:01 | 53.02792 | -9.80797 | 33149 ft | 482 kts | 249° |
| 2026-04-25 02:01 | 53.00946 | -9.91505 | 33140 ft | 482 kts | 249° |
| 2026-04-25 02:02 | 52.99092 | -10.02189 | 33142 ft | 481 kts | 249° |
| 2026-04-25 02:02 | 52.97242 | -10.12791 | 33142 ft | 481 kts | 249° |
| 2026-04-25 02:03 | 52.95373 | -10.23437 | 33154 ft | 481 kts | 249° |
| 2026-04-25 02:03 | 52.93491 | -10.34094 | 33142 ft | 481 kts | 249° |
| 2026-04-25 02:04 | 52.91603 | -10.44726 | 33140 ft | 480 kts | 249° |
| 2026-04-25 02:04 | 52.90028 | -10.53546 | 33142 ft | 480 kts | 249° |
| 2026-04-25 02:05 | 52.88123 | -10.64153 | 33136 ft | 480 kts | 249° |
| 2026-04-25 02:05 | 52.85901 | -10.76453 | 33134 ft | 480 kts | 249° |
| 2026-04-25 02:06 | 52.84291 | -10.85309 | 33133 ft | 480 kts | 249° |
| 2026-04-25 02:06 | 52.82361 | -10.95875 | 33131 ft | 480 kts | 249° |
| 2026-04-25 02:07 | 52.80433 | -11.06369 | 33134 ft | 480 kts | 249° |
| 2026-04-25 02:07 | 52.78484 | -11.16916 | 33161 ft | 480 kts | 249° |
| 2026-04-25 02:08 | 52.76524 | -11.27467 | 33136 ft | 480 kts | 249° |
| 2026-04-25 02:08 | 52.74556 | -11.37995 | 33127 ft | 480 kts | 249° |
| 2026-04-25 02:09 | 52.72579 | -11.48511 | 33131 ft | 479 kts | 249° |
| 2026-04-25 02:09 | 52.70595 | -11.59011 | 33128 ft | 479 kts | 249° |
| 2026-04-25 02:10 | 52.68615 | -11.69430 | 33129 ft | 479 kts | 249° |
| 2026-04-25 02:10 | 52.66616 | -11.79891 | 33120 ft | 478 kts | 249° |
| 2026-04-25 02:11 | 52.64613 | -11.90316 | 33118 ft | 475 kts | 250° |
| 2026-04-25 02:11 | 52.62631 | -12.00580 | 33110 ft | 472 kts | 249° |
| 2026-04-25 02:12 | 52.60636 | -12.10846 | 33137 ft | 469 kts | 250° |
| 2026-04-25 02:12 | 52.58645 | -12.21038 | 33122 ft | 467 kts | 250° |
| 2026-04-25 02:13 | 52.56654 | -12.31179 | 33113 ft | 465 kts | 250° |
| 2026-04-25 02:13 | 52.54660 | -12.41283 | 33118 ft | 465 kts | 250° |
| 2026-04-25 02:14 | 52.52669 | -12.51315 | 33113 ft | 465 kts | 249° |
| 2026-04-25 02:14 | 52.50653 | -12.61421 | 33122 ft | 466 kts | 250° |
| 2026-04-25 02:15 | 52.48627 | -12.71530 | 33113 ft | 466 kts | 250° |
| 2026-04-25 02:15 | 52.46590 | -12.81642 | 33111 ft | 466 kts | 249° |
| 2026-04-25 02:16 | 52.44548 | -12.91723 | 33107 ft | 466 kts | 249° |
| 2026-04-25 02:16 | 52.42499 | -13.01789 | 33110 ft | 465 kts | 249° |
| 2026-04-25 02:17 | 52.40444 | -13.11833 | 33105 ft | 465 kts | 249° |
| 2026-04-25 02:17 | 52.38384 | -13.21852 | 33101 ft | 463 kts | 249° |
| 2026-04-25 02:18 | 52.36322 | -13.31831 | 33105 ft | 462 kts | 249° |
| 2026-04-25 02:18 | 52.34265 | -13.41733 | 33100 ft | 462 kts | 249° |
| 2026-04-25 02:19 | 52.32190 | -13.51675 | 33113 ft | 461 kts | 249° |
| 2026-04-25 02:19 | 52.30110 | -13.61589 | 33096 ft | 460 kts | 249° |
| 2026-04-25 02:20 | 52.28030 | -13.71456 | 33097 ft | 459 kts | 249° |
| 2026-04-25 02:20 | 52.25942 | -13.81312 | 33095 ft | 459 kts | 249° |
| 2026-04-25 02:21 | 52.23849 | -13.91144 | 33093 ft | 458 kts | 249° |
| 2026-04-25 02:21 | 52.21750 | -14.00958 | 33100 ft | 458 kts | 249° |
| 2026-04-25 02:22 | 52.19643 | -14.10762 | 33094 ft | 458 kts | 249° |
| 2026-04-25 02:22 | 52.17542 | -14.20490 | 33089 ft | 458 kts | 249° |
| 2026-04-25 02:23 | 52.15421 | -14.30266 | 33084 ft | 458 kts | 249° |
| 2026-04-25 02:23 | 52.13290 | -14.40042 | 33097 ft | 458 kts | 249° |
| 2026-04-25 02:24 | 52.11155 | -14.49789 | 33074 ft | 456 kts | 249° |
| 2026-04-25 02:24 | 52.09027 | -14.59459 | 33077 ft | 452 kts | 249° |
| 2026-04-25 02:25 | 52.06908 | -14.69048 | 33069 ft | 449 kts | 249° |
| 2026-04-25 02:25 | 52.04806 | -14.78511 | 33076 ft | 447 kts | 249° |
| 2026-04-25 02:26 | 52.02689 | -14.88010 | 33090 ft | 446 kts | 249° |
| 2026-04-25 02:26 | 52.01087 | -14.97690 | 33073 ft | 447 kts | 265° |
| 2026-04-25 02:27 | 52.01637 | -15.07777 | 33069 ft | 454 kts | 283° |
| 2026-04-25 02:27 | 52.03784 | -15.17398 | 33084 ft | 459 kts | 287° |
| 2026-04-25 02:28 | 52.06057 | -15.27220 | 33079 ft | 468 kts | 287° |
| 2026-04-25 02:28 | 52.08307 | -15.37151 | 33068 ft | 468 kts | 286° |
| 2026-04-25 02:29 | 52.10521 | -15.47099 | 33071 ft | 467 kts | 286° |
| 2026-04-25 02:29 | 52.12711 | -15.57035 | 33066 ft | 466 kts | 286° |
| 2026-04-25 02:30 | 52.14887 | -15.66961 | 33065 ft | 465 kts | 286° |
| 2026-04-25 02:30 | 52.17036 | -15.76806 | 33062 ft | 464 kts | 286° |
| 2026-04-25 02:31 | 52.19188 | -15.86712 | 33070 ft | 465 kts | 286° |
| 2026-04-25 02:31 | 52.21346 | -15.96691 | 33069 ft | 468 kts | 286° |
| 2026-04-25 02:32 | 52.23507 | -16.06736 | 33055 ft | 470 kts | 286° |
| 2026-04-25 02:32 | 52.25668 | -16.16823 | 33051 ft | 471 kts | 285° |
| 2026-04-25 02:33 | 52.27824 | -16.26936 | 33053 ft | 472 kts | 285° |
| 2026-04-25 02:33 | 52.29971 | -16.37060 | 33049 ft | 471 kts | 285° |
| 2026-04-25 02:34 | 52.32106 | -16.47173 | 33040 ft | 470 kts | 285° |
| 2026-04-25 02:34 | 52.34226 | -16.57273 | 33062 ft | 469 kts | 285° |
| 2026-04-25 02:35 | 52.36333 | -16.67357 | 33047 ft | 467 kts | 285° |
| 2026-04-25 02:35 | 52.38423 | -16.77413 | 33035 ft | 466 kts | 285° |
| 2026-04-25 02:36 | 52.40484 | -16.87381 | 33040 ft | 465 kts | 285° |
| 2026-04-25 02:36 | 52.42548 | -16.97415 | 33031 ft | 464 kts | 285° |
| 2026-04-25 02:37 | 52.44604 | -17.07460 | 33034 ft | 464 kts | 285° |
| 2026-04-25 02:37 | 52.46650 | -17.17506 | 33049 ft | 465 kts | 284° |
| 2026-04-25 02:38 | 52.48692 | -17.27583 | 33028 ft | 467 kts | 285° |
| 2026-04-25 02:38 | 52.50736 | -17.37726 | 33029 ft | 469 kts | 284° |
| 2026-04-25 02:39 | 52.52784 | -17.47936 | 33025 ft | 472 kts | 284° |
| 2026-04-25 02:39 | 52.54817 | -17.58125 | 33023 ft | 473 kts | 284° |
| 2026-04-25 02:40 | 52.56859 | -17.68409 | 33018 ft | 473 kts | 284° |
| 2026-04-25 02:40 | 52.58890 | -17.78693 | 33038 ft | 471 kts | 284° |
| 2026-04-25 02:41 | 52.60888 | -17.88857 | 33007 ft | 464 kts | 284° |
| 2026-04-25 02:41 | 52.62864 | -17.98973 | 33033 ft | 466 kts | 284° |
| 2026-04-25 02:42 | 52.64858 | -18.09261 | 33022 ft | 477 kts | 284° |
| 2026-04-25 02:42 | 52.66880 | -18.19731 | 33000 ft | 479 kts | 284° |
| 2026-04-25 02:43 | 52.68882 | -18.30131 | 33007 ft | 478 kts | 284° |
| 2026-04-25 02:43 | 52.70881 | -18.40581 | 33017 ft | 477 kts | 284° |
| 2026-04-25 02:44 | 52.72866 | -18.51021 | 33003 ft | 476 kts | 284° |
| 2026-04-25 02:44 | 52.74836 | -18.61442 | 32999 ft | 475 kts | 284° |
| 2026-04-25 02:45 | 52.76793 | -18.71855 | 33002 ft | 475 kts | 284° |
| 2026-04-25 02:45 | 52.78739 | -18.82271 | 33004 ft | 479 kts | 284° |
| 2026-04-25 02:46 | 52.80702 | -18.92832 | 33002 ft | 483 kts | 284° |
| 2026-04-25 02:46 | 52.82671 | -19.03480 | 32996 ft | 486 kts | 284° |
| 2026-04-25 02:47 | 52.84637 | -19.14176 | 32989 ft | 486 kts | 284° |
| 2026-04-25 02:47 | 52.86595 | -19.24891 | 33192 ft | 487 kts | 284° |
| 2026-04-25 02:47 | 52.87569 | -19.30242 | 33568 ft | 484 kts | 284° |
| 2026-04-25 02:48 | 52.88536 | -19.35570 | 33948 ft | 482 kts | 284° |
| 2026-04-25 02:48 | 52.89498 | -19.40887 | 34256 ft | 481 kts | 284° |
| 2026-04-25 02:48 | 52.90457 | -19.46205 | 34370 ft | 485 kts | 284° |
| 2026-04-25 02:49 | 52.92393 | -19.56997 | 34614 ft | 489 kts | 284° |
| 2026-04-25 02:49 | 52.93358 | -19.62396 | 34938 ft | 487 kts | 284° |
| 2026-04-25 02:49 | 52.94308 | -19.67726 | 34944 ft | 489 kts | 284° |
| 2026-04-25 02:50 | 52.96222 | -19.78510 | 34964 ft | 485 kts | 284° |
| 2026-04-25 02:50 | 52.98111 | -19.89220 | 34963 ft | 482 kts | 284° |
| 2026-04-25 02:51 | 52.99982 | -19.99883 | 34973 ft | 481 kts | 283° |
| 2026-04-25 02:51 | 53.01654 | -20.10614 | 34968 ft | 480 kts | 281° |
| 2026-04-25 02:52 | 53.03146 | -20.21429 | 34986 ft | 483 kts | 280° |
| 2026-04-25 02:52 | 53.04649 | -20.32349 | 34979 ft | 491 kts | 281° |
| 2026-04-25 02:53 | 53.06198 | -20.43410 | 34971 ft | 492 kts | 281° |
| 2026-04-25 02:53 | 53.07755 | -20.54494 | 34962 ft | 492 kts | 281° |
| 2026-04-25 02:54 | 53.09303 | -20.65573 | 34956 ft | 490 kts | 281° |
| 2026-04-25 02:54 | 53.10833 | -20.76618 | 34957 ft | 489 kts | 281° |
| 2026-04-25 02:55 | 53.12347 | -20.87638 | 34962 ft | 487 kts | 280° |
| 2026-04-25 02:55 | 53.13834 | -20.98556 | 34951 ft | 485 kts | 280° |
| 2026-04-25 02:56 | 53.15319 | -21.09536 | 34952 ft | 486 kts | 280° |
| 2026-04-25 02:56 | 53.16798 | -21.20554 | 34956 ft | 487 kts | 280° |
| 2026-04-25 02:57 | 53.18021 | -21.29725 | 34955 ft | 489 kts | 280° |
| 2026-04-25 02:57 | 53.19488 | -21.40811 | 34952 ft | 490 kts | 280° |
| 2026-04-25 02:58 | 53.20950 | -21.51931 | 34948 ft | 491 kts | 280° |
| 2026-04-25 02:58 | 53.22405 | -21.63092 | 34936 ft | 492 kts | 280° |
| 2026-04-25 02:59 | 53.23848 | -21.74252 | 34939 ft | 492 kts | 280° |
| 2026-04-25 02:59 | 53.25281 | -21.85414 | 34932 ft | 492 kts | 280° |
| 2026-04-25 03:00 | 53.26696 | -21.96532 | 34935 ft | 492 kts | 280° |
| 2026-04-25 03:00 | 53.28112 | -22.07745 | 34950 ft | 493 kts | 280° |
| 2026-04-25 03:01 | 53.29518 | -22.18967 | 34934 ft | 494 kts | 279° |
| 2026-04-25 03:01 | 53.30914 | -22.30205 | 34926 ft | 493 kts | 279° |
| 2026-04-25 03:02 | 53.32299 | -22.41442 | 34923 ft | 493 kts | 279° |
| 2026-04-25 03:02 | 53.33673 | -22.52688 | 34928 ft | 493 kts | 279° |
| 2026-04-25 03:03 | 53.35036 | -22.63932 | 34922 ft | 492 kts | 279° |
| 2026-04-25 03:03 | 53.36387 | -22.75173 | 34930 ft | 493 kts | 279° |
| 2026-04-25 03:04 | 53.37720 | -22.86360 | 34915 ft | 493 kts | 279° |
| 2026-04-25 03:04 | 53.39052 | -22.97637 | 34914 ft | 493 kts | 279° |
| 2026-04-25 03:05 | 53.41030 | -23.14563 | 34911 ft | 493 kts | 279° |
| 2026-04-25 03:05 | 53.42335 | -23.25849 | 34913 ft | 493 kts | 279° |
| 2026-04-25 03:06 | 53.43622 | -23.37079 | 34917 ft | 493 kts | 279° |
| 2026-04-25 03:06 | 53.44905 | -23.48379 | 34911 ft | 493 kts | 279° |
| 2026-04-25 03:07 | 53.46179 | -23.59692 | 34904 ft | 494 kts | 279° |
| 2026-04-25 03:07 | 53.47443 | -23.71026 | 34907 ft | 494 kts | 279° |
| 2026-04-25 03:08 | 53.48699 | -23.82382 | 34902 ft | 495 kts | 279° |
| 2026-04-25 03:08 | 53.49945 | -23.93757 | 34915 ft | 495 kts | 279° |
| 2026-04-25 03:09 | 53.51181 | -24.05146 | 34902 ft | 495 kts | 278° |
| 2026-04-25 03:09 | 53.52404 | -24.16519 | 34894 ft | 495 kts | 278° |
| 2026-04-25 03:10 | 53.53615 | -24.27893 | 34893 ft | 494 kts | 278° |
| 2026-04-25 03:10 | 53.54813 | -24.39247 | 34893 ft | 493 kts | 278° |
| 2026-04-25 03:11 | 53.55999 | -24.50598 | 34896 ft | 492 kts | 278° |
| 2026-04-25 03:11 | 53.57165 | -24.61866 | 34897 ft | 492 kts | 278° |
| 2026-04-25 03:12 | 53.58326 | -24.73200 | 34890 ft | 491 kts | 278° |
| 2026-04-25 03:12 | 53.59478 | -24.84547 | 34884 ft | 490 kts | 278° |
| 2026-04-25 03:13 | 53.60613 | -24.95848 | 34881 ft | 490 kts | 278° |
| 2026-04-25 03:13 | 53.61731 | -25.07084 | 34885 ft | 489 kts | 278° |
| 2026-04-25 03:14 | 53.62846 | -25.18403 | 34881 ft | 490 kts | 278° |
| 2026-04-25 03:14 | 53.63951 | -25.29742 | 34888 ft | 491 kts | 278° |
| 2026-04-25 03:15 | 53.65048 | -25.41110 | 34880 ft | 492 kts | 278° |
| 2026-04-25 03:15 | 53.66137 | -25.52509 | 34883 ft | 493 kts | 277° |
| 2026-04-25 03:16 | 53.67215 | -25.63914 | 34880 ft | 493 kts | 277° |
| 2026-04-25 03:16 | 53.68285 | -25.75351 | 34879 ft | 493 kts | 277° |
| 2026-04-25 03:17 | 53.69342 | -25.86783 | 34885 ft | 492 kts | 277° |
| 2026-04-25 03:17 | 53.70386 | -25.98191 | 34872 ft | 491 kts | 277° |
| 2026-04-25 03:18 | 53.71411 | -26.09505 | 34863 ft | 490 kts | 277° |
| 2026-04-25 03:18 | 53.72429 | -26.20885 | 34876 ft | 490 kts | 277° |
| 2026-04-25 03:19 | 53.73438 | -26.32275 | 34878 ft | 491 kts | 277° |
| 2026-04-25 03:19 | 53.74437 | -26.43686 | 34871 ft | 491 kts | 277° |
| 2026-04-25 03:20 | 53.75426 | -26.55117 | 34876 ft | 491 kts | 277° |
| 2026-04-25 03:20 | 53.76405 | -26.66546 | 34866 ft | 491 kts | 277° |
| 2026-04-25 03:21 | 53.77370 | -26.77955 | 34868 ft | 490 kts | 277° |
| 2026-04-25 03:21 | 53.78322 | -26.89351 | 34867 ft | 489 kts | 277° |
| 2026-04-25 03:22 | 53.79265 | -27.00771 | 34866 ft | 490 kts | 276° |
| 2026-04-25 03:22 | 53.80199 | -27.12214 | 34876 ft | 492 kts | 276° |
| 2026-04-25 03:23 | 53.81119 | -27.23617 | 34867 ft | 492 kts | 276° |
| 2026-04-25 03:23 | 53.82033 | -27.35092 | 34864 ft | 492 kts | 276° |
| 2026-04-25 03:24 | 53.82935 | -27.46562 | 34869 ft | 491 kts | 276° |
| 2026-04-25 03:24 | 53.83826 | -27.58031 | 34867 ft | 491 kts | 276° |
| 2026-04-25 03:25 | 53.84704 | -27.69482 | 34865 ft | 490 kts | 276° |
| 2026-04-25 03:25 | 53.85571 | -27.80939 | 34862 ft | 491 kts | 276° |
| 2026-04-25 03:26 | 53.86428 | -27.92411 | 34868 ft | 491 kts | 276° |
| 2026-04-25 03:26 | 53.87271 | -28.03845 | 34868 ft | 492 kts | 276° |
| 2026-04-25 03:27 | 53.88111 | -28.15382 | 34861 ft | 493 kts | 276° |
| 2026-04-25 03:27 | 53.88940 | -28.26936 | 34864 ft | 494 kts | 275° |
| 2026-04-25 03:28 | 53.89761 | -28.38530 | 34869 ft | 494 kts | 275° |
| 2026-04-25 03:28 | 53.90563 | -28.50021 | 34860 ft | 493 kts | 275° |
| 2026-04-25 03:29 | 53.91357 | -28.61555 | 34856 ft | 492 kts | 275° |
| 2026-04-25 03:29 | 53.92137 | -28.73070 | 34859 ft | 491 kts | 275° |
| 2026-04-25 03:30 | 53.92907 | -28.84586 | 34862 ft | 491 kts | 275° |
| 2026-04-25 03:30 | 53.93666 | -28.96113 | 34861 ft | 492 kts | 275° |
| 2026-04-25 03:31 | 53.94417 | -29.07683 | 34869 ft | 493 kts | 275° |
| 2026-04-25 03:31 | 53.95156 | -29.19258 | 34854 ft | 492 kts | 275° |
| 2026-04-25 03:32 | 53.95884 | -29.30818 | 34853 ft | 492 kts | 275° |
| 2026-04-25 03:32 | 53.96594 | -29.42282 | 34855 ft | 491 kts | 275° |
| 2026-04-25 03:33 | 53.97298 | -29.53831 | 34846 ft | 492 kts | 275° |
| 2026-04-25 03:33 | 53.97991 | -29.65400 | 34859 ft | 493 kts | 274° |
| 2026-04-25 03:34 | 53.98676 | -29.76999 | 34861 ft | 493 kts | 274° |
| 2026-04-25 03:34 | 53.99350 | -29.88615 | 34853 ft | 494 kts | 274° |
| 2026-04-25 03:35 | 54.00014 | -30.00224 | 34855 ft | 493 kts | 274° |
| 2026-04-25 03:35 | 54.00547 | -30.11836 | 34856 ft | 492 kts | 272° |
| 2026-04-25 03:36 | 54.00981 | -30.23444 | 34852 ft | 492 kts | 272° |
| 2026-04-25 03:36 | 54.01409 | -30.35037 | 34865 ft | 491 kts | 272° |
| 2026-04-25 03:37 | 54.01844 | -30.46624 | 34847 ft | 491 kts | 272° |
| 2026-04-25 03:37 | 54.02276 | -30.58222 | 34849 ft | 491 kts | 272° |
| 2026-04-25 03:38 | 54.02695 | -30.69748 | 34854 ft | 492 kts | 272° |
| 2026-04-25 03:38 | 54.03106 | -30.81371 | 34846 ft | 492 kts | 272° |
| 2026-04-25 03:39 | 54.03505 | -30.93002 | 34847 ft | 493 kts | 272° |
| 2026-04-25 03:39 | 54.03893 | -31.04639 | 34846 ft | 493 kts | 271° |
| 2026-04-25 03:40 | 54.04270 | -31.16283 | 34844 ft | 492 kts | 272° |
| 2026-04-25 03:40 | 54.04634 | -31.27889 | 34843 ft | 491 kts | 271° |
| 2026-04-25 03:41 | 54.04988 | -31.39502 | 34841 ft | 492 kts | 271° |
| 2026-04-25 03:41 | 54.05330 | -31.51132 | 34845 ft | 492 kts | 271° |
| 2026-04-25 03:42 | 54.05662 | -31.62780 | 34849 ft | 493 kts | 271° |
| 2026-04-25 03:42 | 54.05982 | -31.74438 | 34840 ft | 493 kts | 271° |
| 2026-04-25 03:43 | 54.06290 | -31.86015 | 34838 ft | 492 kts | 271° |
| 2026-04-25 03:43 | 54.06588 | -31.97644 | 34842 ft | 492 kts | 271° |
| 2026-04-25 03:44 | 54.06874 | -32.09272 | 34833 ft | 491 kts | 271° |
| 2026-04-25 03:44 | 54.07149 | -32.20897 | 34836 ft | 491 kts | 271° |
| 2026-04-25 03:45 | 54.07412 | -32.32533 | 34842 ft | 492 kts | 270° |
| 2026-04-25 03:45 | 54.07665 | -32.44175 | 34836 ft | 492 kts | 271° |
| 2026-04-25 03:46 | 54.07907 | -32.55847 | 34829 ft | 493 kts | 270° |
| 2026-04-25 03:46 | 54.08100 | -32.65539 | 34831 ft | 493 kts | 271° |
| 2026-04-25 03:47 | 54.08356 | -32.79087 | 34825 ft | 492 kts | 270° |
| 2026-04-25 03:47 | 54.08564 | -32.90764 | 34838 ft | 492 kts | 270° |
| 2026-04-25 03:48 | 54.08728 | -33.00445 | 34827 ft | 491 kts | 270° |
| 2026-04-25 03:48 | 54.08915 | -33.12069 | 34823 ft | 490 kts | 270° |
| 2026-04-25 03:49 | 54.09090 | -33.23667 | 34823 ft | 489 kts | 270° |
| 2026-04-25 03:49 | 54.09254 | -33.35245 | 34821 ft | 489 kts | 270° |
| 2026-04-25 03:50 | 54.09407 | -33.46829 | 34820 ft | 488 kts | 270° |
| 2026-04-25 03:50 | 54.09548 | -33.58392 | 34826 ft | 488 kts | 269° |
| 2026-04-25 03:51 | 54.09678 | -33.69952 | 34817 ft | 488 kts | 270° |
| 2026-04-25 03:51 | 54.09796 | -33.81425 | 34816 ft | 487 kts | 269° |
| 2026-04-25 03:52 | 54.09903 | -33.92965 | 34812 ft | 487 kts | 270° |
| 2026-04-25 03:52 | 54.10001 | -34.04510 | 34808 ft | 488 kts | 269° |
| 2026-04-25 03:53 | 54.10087 | -34.16092 | 34814 ft | 490 kts | 270° |
| 2026-04-25 03:53 | 54.10163 | -34.27724 | 34820 ft | 492 kts | 269° |
| 2026-04-25 03:54 | 54.10226 | -34.39402 | 34811 ft | 494 kts | 269° |
| 2026-04-25 03:54 | 54.10280 | -34.51129 | 34810 ft | 495 kts | 269° |
| 2026-04-25 03:55 | 54.10321 | -34.62774 | 34802 ft | 494 kts | 269° |
| 2026-04-25 03:55 | 54.10352 | -34.74488 | 34805 ft | 494 kts | 269° |
| 2026-04-25 03:56 | 54.10371 | -34.86180 | 34805 ft | 492 kts | 269° |
| 2026-04-25 03:56 | 54.10379 | -34.97822 | 34785 ft | 490 kts | 269° |
| 2026-04-25 03:57 | 54.10376 | -35.09439 | 34797 ft | 491 kts | 268° |
| 2026-04-25 03:57 | 54.10360 | -35.21080 | 34803 ft | 492 kts | 269° |
| 2026-04-25 03:58 | 54.10334 | -35.32784 | 34782 ft | 495 kts | 268° |
| 2026-04-25 03:58 | 54.10296 | -35.44523 | 34795 ft | 496 kts | 269° |
| 2026-04-25 03:59 | 54.10248 | -35.56182 | 34785 ft | 495 kts | 268° |
| 2026-04-25 03:59 | 54.10188 | -35.67892 | 34778 ft | 492 kts | 268° |
| 2026-04-25 04:00 | 54.10117 | -35.79529 | 34776 ft | 490 kts | 268° |
| 2026-04-25 04:00 | 54.10035 | -35.91127 | 34770 ft | 490 kts | 268° |
| 2026-04-25 04:01 | 54.09940 | -36.02819 | 34794 ft | 496 kts | 267° |
| 2026-04-25 04:01 | 54.09832 | -36.14640 | 34777 ft | 500 kts | 268° |
| 2026-04-25 04:02 | 54.09717 | -36.26350 | 34759 ft | 489 kts | 268° |
| 2026-04-25 04:02 | 54.09592 | -36.37907 | 34765 ft | 488 kts | 267° |
| 2026-04-25 04:03 | 54.09453 | -36.49468 | 34780 ft | 488 kts | 267° |
| 2026-04-25 04:03 | 54.09304 | -36.60982 | 34772 ft | 490 kts | 267° |
| 2026-04-25 04:04 | 54.09143 | -36.72603 | 34765 ft | 491 kts | 268° |
| 2026-04-25 04:04 | 54.08971 | -36.84255 | 34761 ft | 493 kts | 267° |
| 2026-04-25 04:05 | 54.08786 | -36.95932 | 34768 ft | 493 kts | 268° |
| 2026-04-25 04:05 | 54.08591 | -37.07629 | 34757 ft | 494 kts | 267° |
| 2026-04-25 04:06 | 54.08384 | -37.19324 | 34756 ft | 494 kts | 267° |
| 2026-04-25 04:06 | 54.08166 | -37.30994 | 34756 ft | 493 kts | 266° |
| 2026-04-25 04:07 | 54.07938 | -37.42594 | 34765 ft | 492 kts | 267° |
| 2026-04-25 04:07 | 54.07698 | -37.54224 | 34757 ft | 491 kts | 267° |
| 2026-04-25 04:08 | 54.07448 | -37.65834 | 34739 ft | 489 kts | 266° |
| 2026-04-25 04:08 | 54.07186 | -37.77438 | 34754 ft | 492 kts | 267° |
| 2026-04-25 04:09 | 54.06911 | -37.89143 | 34752 ft | 497 kts | 266° |
| 2026-04-25 04:09 | 54.06621 | -38.00944 | 34745 ft | 500 kts | 266° |
| 2026-04-25 04:10 | 54.06326 | -38.12602 | 34744 ft | 490 kts | 266° |
| 2026-04-25 04:10 | 54.06023 | -38.24089 | 34736 ft | 482 kts | 266° |
| 2026-04-25 04:11 | 54.05543 | -38.41386 | 34758 ft | 492 kts | 266° |
| 2026-04-25 04:12 | 54.05207 | -38.53053 | 34750 ft | 495 kts | 266° |
| 2026-04-25 04:12 | 54.04858 | -38.64749 | 34741 ft | 495 kts | 266° |
| 2026-04-25 04:13 | 54.04497 | -38.76478 | 34746 ft | 495 kts | 266° |
| 2026-04-25 04:13 | 54.04127 | -38.88161 | 34735 ft | 494 kts | 265° |
| 2026-04-25 04:14 | 54.03747 | -38.99750 | 34738 ft | 492 kts | 266° |
| 2026-04-25 04:14 | 54.03356 | -39.11369 | 34729 ft | 491 kts | 266° |
| 2026-04-25 04:15 | 54.02953 | -39.22966 | 34741 ft | 491 kts | 265° |
| 2026-04-25 04:15 | 54.02541 | -39.34553 | 34750 ft | 490 kts | 265° |
| 2026-04-25 04:16 | 54.02117 | -39.46129 | 34741 ft | 490 kts | 265° |
| 2026-04-25 04:16 | 54.01683 | -39.57687 | 34737 ft | 490 kts | 265° |
| 2026-04-25 04:17 | 54.01237 | -39.69256 | 34742 ft | 491 kts | 265° |
| 2026-04-25 04:17 | 54.00779 | -39.80878 | 34742 ft | 493 kts | 265° |
| 2026-04-25 04:18 | 54.00312 | -39.92464 | 34749 ft | 495 kts | 265° |
| 2026-04-25 04:18 | 53.99486 | -40.04052 | 34737 ft | 493 kts | 255° |
| 2026-04-25 04:19 | 53.97763 | -40.15313 | 34739 ft | 491 kts | 253° |
| 2026-04-25 04:19 | 53.95996 | -40.26519 | 34740 ft | 490 kts | 254° |
| 2026-04-25 04:20 | 53.94256 | -40.37699 | 34746 ft | 489 kts | 255° |
| 2026-04-25 04:20 | 53.92531 | -40.48857 | 34743 ft | 488 kts | 255° |
| 2026-04-25 04:21 | 53.90812 | -40.59934 | 34743 ft | 488 kts | 254° |
| 2026-04-25 04:21 | 53.89069 | -40.71087 | 34743 ft | 491 kts | 254° |
| 2026-04-25 04:22 | 53.87292 | -40.82358 | 34755 ft | 498 kts | 254° |
| 2026-04-25 04:22 | 53.85489 | -40.93730 | 34747 ft | 501 kts | 254° |
| 2026-04-25 04:23 | 53.83683 | -41.05052 | 34737 ft | 495 kts | 253° |
| 2026-04-25 04:23 | 53.81892 | -41.16202 | 34732 ft | 487 kts | 254° |
| 2026-04-25 04:24 | 53.80122 | -41.27138 | 34740 ft | 485 kts | 253° |
| 2026-04-25 04:24 | 53.78314 | -41.38227 | 34750 ft | 492 kts | 253° |
| 2026-04-25 04:25 | 53.76479 | -41.49423 | 34746 ft | 495 kts | 254° |
| 2026-04-25 04:25 | 53.74631 | -41.60628 | 34749 ft | 495 kts | 253° |
| 2026-04-25 04:26 | 53.72776 | -41.71794 | 34739 ft | 492 kts | 253° |
| 2026-04-25 04:26 | 53.70926 | -41.82868 | 34736 ft | 488 kts | 253° |
| 2026-04-25 04:27 | 53.69076 | -41.93863 | 34736 ft | 485 kts | 253° |
| 2026-04-25 04:27 | 53.67223 | -42.04805 | 34745 ft | 492 kts | 253° |
| 2026-04-25 04:28 | 53.65322 | -42.15965 | 34751 ft | 495 kts | 253° |
| 2026-04-25 04:28 | 53.63412 | -42.27110 | 34740 ft | 494 kts | 253° |
| 2026-04-25 04:29 | 53.61499 | -42.38201 | 34741 ft | 492 kts | 252° |
| 2026-04-25 04:29 | 53.59585 | -42.49227 | 34743 ft | 490 kts | 253° |
| 2026-04-25 04:30 | 53.57665 | -42.60218 | 34739 ft | 489 kts | 252° |
| 2026-04-25 04:30 | 53.55738 | -42.71184 | 34751 ft | 487 kts | 253° |
| 2026-04-25 04:31 | 53.53821 | -42.82022 | 34741 ft | 486 kts | 253° |
| 2026-04-25 04:31 | 53.51889 | -42.92887 | 34738 ft | 485 kts | 252° |
| 2026-04-25 04:32 | 53.49947 | -43.03736 | 34741 ft | 484 kts | 253° |
| 2026-04-25 04:32 | 53.47999 | -43.14560 | 34743 ft | 484 kts | 252° |
| 2026-04-25 04:33 | 53.46041 | -43.25371 | 34746 ft | 483 kts | 252° |
| 2026-04-25 04:33 | 53.44087 | -43.36096 | 34739 ft | 483 kts | 252° |
| 2026-04-25 04:34 | 53.42114 | -43.46865 | 34740 ft | 483 kts | 252° |
| 2026-04-25 04:34 | 53.40132 | -43.57622 | 34742 ft | 482 kts | 252° |
| 2026-04-25 04:35 | 53.38141 | -43.68359 | 34737 ft | 482 kts | 252° |
| 2026-04-25 04:35 | 53.36144 | -43.79073 | 34741 ft | 481 kts | 252° |
| 2026-04-25 04:36 | 53.34140 | -43.89760 | 34736 ft | 481 kts | 252° |
| 2026-04-25 04:36 | 53.32131 | -44.00418 | 34733 ft | 480 kts | 252° |
| 2026-04-25 04:37 | 53.30126 | -44.10987 | 34735 ft | 480 kts | 252° |
| 2026-04-25 04:37 | 53.28429 | -44.19893 | 34734 ft | 479 kts | 252° |
| 2026-04-25 04:38 | 53.26410 | -44.30432 | 34733 ft | 479 kts | 252° |
| 2026-04-25 04:38 | 53.24370 | -44.41016 | 34728 ft | 478 kts | 252° |
| 2026-04-25 04:39 | 53.22322 | -44.51591 | 34731 ft | 479 kts | 251° |
| 2026-04-25 04:39 | 53.20261 | -44.62170 | 34734 ft | 480 kts | 251° |
| 2026-04-25 04:40 | 53.18186 | -44.72767 | 34731 ft | 480 kts | 250° |
| 2026-04-25 04:40 | 53.16103 | -44.83344 | 34730 ft | 480 kts | 251° |
| 2026-04-25 04:41 | 53.14024 | -44.93841 | 34723 ft | 480 kts | 251° |
| 2026-04-25 04:41 | 53.11926 | -45.04383 | 34725 ft | 479 kts | 251° |
| 2026-04-25 04:42 | 53.09820 | -45.14897 | 34729 ft | 479 kts | 251° |
| 2026-04-25 04:42 | 53.07708 | -45.25392 | 34734 ft | 478 kts | 251° |
| 2026-04-25 04:43 | 53.05583 | -45.35891 | 34719 ft | 478 kts | 250° |
| 2026-04-25 04:43 | 53.03469 | -45.46283 | 34734 ft | 477 kts | 250° |
| 2026-04-25 04:44 | 53.01334 | -45.56726 | 34726 ft | 477 kts | 249° |
| 2026-04-25 04:44 | 52.99192 | -45.67150 | 34725 ft | 477 kts | 249° |
| 2026-04-25 04:45 | 52.97037 | -45.77576 | 34729 ft | 479 kts | 250° |
| 2026-04-25 04:45 | 52.94859 | -45.88063 | 34727 ft | 482 kts | 249° |
| 2026-04-25 04:46 | 52.92659 | -45.98597 | 34733 ft | 484 kts | 250° |
| 2026-04-25 04:46 | 52.90440 | -46.09168 | 34728 ft | 486 kts | 249° |
| 2026-04-25 04:47 | 52.88222 | -46.19677 | 34724 ft | 486 kts | 249° |
| 2026-04-25 04:47 | 52.85985 | -46.30225 | 34705 ft | 485 kts | 249° |
| 2026-04-25 04:48 | 52.83741 | -46.40748 | 34711 ft | 484 kts | 250° |
| 2026-04-25 04:48 | 52.81496 | -46.51223 | 34722 ft | 483 kts | 250° |
| 2026-04-25 04:49 | 52.79247 | -46.61666 | 34727 ft | 482 kts | 249° |
| 2026-04-25 04:49 | 52.76992 | -46.72078 | 34724 ft | 481 kts | 249° |
| 2026-04-25 04:50 | 52.74730 | -46.82473 | 34709 ft | 480 kts | 249° |
| 2026-04-25 04:50 | 52.72476 | -46.92778 | 34704 ft | 481 kts | 249° |
| 2026-04-25 04:51 | 52.70189 | -47.03178 | 34723 ft | 484 kts | 249° |
| 2026-04-25 04:51 | 52.67877 | -47.13645 | 34719 ft | 487 kts | 249° |
| 2026-04-25 04:52 | 52.65542 | -47.24158 | 34716 ft | 489 kts | 249° |
| 2026-04-25 04:52 | 52.63193 | -47.34684 | 34695 ft | 490 kts | 249° |
| 2026-04-25 04:53 | 52.60836 | -47.45197 | 34706 ft | 488 kts | 249° |
| 2026-04-25 04:53 | 52.58476 | -47.55664 | 34705 ft | 487 kts | 248° |
| 2026-04-25 04:54 | 52.56133 | -47.66007 | 34696 ft | 485 kts | 248° |
| 2026-04-25 04:54 | 52.53770 | -47.76386 | 34701 ft | 484 kts | 248° |
| 2026-04-25 04:55 | 52.51401 | -47.86739 | 34696 ft | 483 kts | 249° |
| 2026-04-25 04:55 | 52.49030 | -47.97055 | 34700 ft | 483 kts | 248° |
| 2026-04-25 04:56 | 52.46649 | -48.07361 | 34694 ft | 483 kts | 248° |
| 2026-04-25 04:56 | 52.44246 | -48.17709 | 34701 ft | 489 kts | 249° |
| 2026-04-25 04:57 | 52.41802 | -48.28188 | 34691 ft | 494 kts | 248° |
| 2026-04-25 04:57 | 52.39339 | -48.38695 | 34696 ft | 494 kts | 248° |
| 2026-04-25 04:58 | 52.36869 | -48.49182 | 34691 ft | 493 kts | 248° |
| 2026-04-25 04:58 | 52.34413 | -48.59556 | 34685 ft | 491 kts | 248° |
| 2026-04-25 04:59 | 52.31940 | -48.69955 | 34688 ft | 490 kts | 248° |
| 2026-04-25 04:59 | 52.29465 | -48.80312 | 34689 ft | 489 kts | 248° |
| 2026-04-25 05:00 | 52.26984 | -48.90644 | 34683 ft | 489 kts | 248° |
| 2026-04-25 05:00 | 52.24493 | -49.00968 | 34683 ft | 489 kts | 248° |
| 2026-04-25 05:01 | 52.21988 | -49.11301 | 34685 ft | 490 kts | 248° |
| 2026-04-25 05:01 | 52.19470 | -49.21639 | 34675 ft | 491 kts | 248° |
| 2026-04-25 05:02 | 52.16933 | -49.32005 | 34680 ft | 494 kts | 248° |
| 2026-04-25 05:02 | 52.14394 | -49.42334 | 34675 ft | 495 kts | 248° |
| 2026-04-25 05:03 | 52.11823 | -49.52740 | 34680 ft | 496 kts | 248° |
| 2026-04-25 05:03 | 52.09241 | -49.63143 | 34670 ft | 495 kts | 248° |
| 2026-04-25 05:04 | 52.06651 | -49.73533 | 34677 ft | 495 kts | 247° |
| 2026-04-25 05:04 | 52.04050 | -49.83916 | 34676 ft | 495 kts | 247° |
| 2026-04-25 05:05 | 52.01441 | -49.94294 | 34670 ft | 495 kts | 247° |
| 2026-04-25 05:05 | 51.98842 | -50.04661 | 34670 ft | 495 kts | 248° |
| 2026-04-25 05:06 | 51.96336 | -50.15072 | 34674 ft | 496 kts | 248° |
| 2026-04-25 05:06 | 51.93850 | -50.25459 | 34670 ft | 498 kts | 248° |
| 2026-04-25 05:07 | 51.91321 | -50.35929 | 34661 ft | 500 kts | 248° |
| 2026-04-25 05:07 | 51.88768 | -50.46400 | 34663 ft | 499 kts | 248° |
| 2026-04-25 05:08 | 51.86208 | -50.56836 | 34653 ft | 499 kts | 248° |
| 2026-04-25 05:08 | 51.83641 | -50.67255 | 34660 ft | 498 kts | 248° |
| 2026-04-25 05:09 | 51.81070 | -50.77646 | 34665 ft | 498 kts | 248° |
| 2026-04-25 05:09 | 51.78485 | -50.88044 | 34662 ft | 498 kts | 248° |
| 2026-04-25 05:10 | 51.75890 | -50.98431 | 34659 ft | 499 kts | 248° |
| 2026-04-25 05:10 | 51.73283 | -51.08821 | 34668 ft | 499 kts | 248° |
| 2026-04-25 05:11 | 51.70663 | -51.19215 | 34667 ft | 501 kts | 248° |
| 2026-04-25 05:11 | 51.68021 | -51.29641 | 34664 ft | 502 kts | 247° |
| 2026-04-25 05:12 | 51.64061 | -51.45182 | 34655 ft | 503 kts | 248° |
| 2026-04-25 05:12 | 51.61390 | -51.55604 | 34654 ft | 505 kts | 248° |
| 2026-04-25 05:13 | 51.58701 | -51.66051 | 34653 ft | 504 kts | 248° |
| 2026-04-25 05:13 | 51.56015 | -51.76436 | 34653 ft | 501 kts | 247° |
| 2026-04-25 05:14 | 51.53345 | -51.86713 | 34661 ft | 501 kts | 247° |
| 2026-04-25 05:15 | 51.49288 | -52.02241 | 34664 ft | 503 kts | 247° |
| 2026-04-25 05:15 | 51.46565 | -52.12602 | 34662 ft | 504 kts | 247° |
| 2026-04-25 05:16 | 51.43824 | -52.22985 | 34656 ft | 505 kts | 247° |
| 2026-04-25 05:16 | 51.41078 | -52.33338 | 34664 ft | 505 kts | 246° |
| 2026-04-25 05:17 | 51.38341 | -52.43614 | 34656 ft | 505 kts | 246° |
| 2026-04-25 05:17 | 51.35577 | -52.53943 | 34644 ft | 505 kts | 246° |
| 2026-04-25 05:18 | 51.32807 | -52.64249 | 34654 ft | 505 kts | 246° |
| 2026-04-25 05:18 | 51.30020 | -52.74573 | 34658 ft | 506 kts | 246° |
| 2026-04-25 05:19 | 51.27221 | -52.84897 | 34657 ft | 506 kts | 246° |
| 2026-04-25 05:19 | 51.24429 | -52.95148 | 34664 ft | 506 kts | 246° |
| 2026-04-25 05:20 | 51.21611 | -53.05455 | 34657 ft | 506 kts | 246° |
| 2026-04-25 05:20 | 51.18761 | -53.15754 | 34663 ft | 505 kts | 243° |
| 2026-04-25 05:20 | 51.16950 | -53.20532 | 34655 ft | 504 kts | 231° |
| 2026-04-25 05:21 | 51.14635 | -53.24713 | 34667 ft | 502 kts | 222° |
| 2026-04-25 05:21 | 51.09066 | -53.31159 | 34686 ft | 498 kts | 209° |
| 2026-04-25 05:22 | 51.03121 | -53.36860 | 34665 ft | 500 kts | 209° |
| 2026-04-25 05:22 | 50.97178 | -53.42607 | 34647 ft | 501 kts | 209° |
| 2026-04-25 05:23 | 50.91246 | -53.48412 | 34649 ft | 501 kts | 210° |
| 2026-04-25 05:23 | 50.85324 | -53.54226 | 34652 ft | 500 kts | 210° |
| 2026-04-25 05:24 | 50.79408 | -53.60020 | 34640 ft | 499 kts | 210° |
| 2026-04-25 05:24 | 50.73503 | -53.65781 | 34641 ft | 498 kts | 210° |
| 2026-04-25 05:25 | 50.67596 | -53.71523 | 34650 ft | 497 kts | 209° |
| 2026-04-25 05:25 | 50.61707 | -53.77229 | 34642 ft | 497 kts | 209° |
| 2026-04-25 05:26 | 50.55816 | -53.82921 | 34633 ft | 497 kts | 209° |
| 2026-04-25 05:26 | 50.49957 | -53.88565 | 34632 ft | 497 kts | 209° |
| 2026-04-25 05:27 | 50.44054 | -53.94235 | 34636 ft | 498 kts | 209° |
| 2026-04-25 05:27 | 50.38134 | -53.99903 | 34637 ft | 499 kts | 209° |
| 2026-04-25 05:28 | 50.33203 | -54.04613 | 34640 ft | 500 kts | 209° |
| 2026-04-25 05:28 | 50.27247 | -54.10286 | 34634 ft | 501 kts | 209° |
| 2026-04-25 05:29 | 50.21279 | -54.15954 | 34630 ft | 502 kts | 209° |
| 2026-04-25 05:29 | 50.15303 | -54.21613 | 34630 ft | 502 kts | 208° |
| 2026-04-25 05:30 | 50.09328 | -54.27253 | 34626 ft | 502 kts | 208° |
| 2026-04-25 05:30 | 50.03386 | -54.32847 | 34629 ft | 502 kts | 208° |
| 2026-04-25 05:31 | 49.97403 | -54.38462 | 34621 ft | 502 kts | 208° |
| 2026-04-25 05:31 | 49.91409 | -54.44072 | 34621 ft | 502 kts | 208° |
| 2026-04-25 05:32 | 49.85422 | -54.49657 | 34610 ft | 502 kts | 208° |
| 2026-04-25 05:32 | 49.79431 | -54.55230 | 34613 ft | 503 kts | 208° |
| 2026-04-25 05:33 | 49.73426 | -54.60801 | 34600 ft | 503 kts | 208° |
| 2026-04-25 05:33 | 49.67412 | -54.66363 | 34597 ft | 503 kts | 208° |
| 2026-04-25 05:34 | 49.61433 | -54.71877 | 34594 ft | 504 kts | 208° |
| 2026-04-25 05:34 | 49.55402 | -54.77423 | 34589 ft | 505 kts | 208° |
| 2026-04-25 05:35 | 49.49357 | -54.82965 | 34590 ft | 505 kts | 208° |
| 2026-04-25 05:35 | 49.43313 | -54.88491 | 34598 ft | 505 kts | 208° |
| 2026-04-25 05:36 | 49.37262 | -54.94007 | 34593 ft | 506 kts | 208° |
| 2026-04-25 05:36 | 49.31241 | -54.99479 | 34598 ft | 506 kts | 208° |
| 2026-04-25 05:37 | 49.25182 | -55.04971 | 34591 ft | 506 kts | 208° |
| 2026-04-25 05:37 | 49.19111 | -55.10457 | 34600 ft | 507 kts | 208° |
| 2026-04-25 05:38 | 49.13037 | -55.15930 | 34598 ft | 507 kts | 207° |
| 2026-04-25 05:38 | 49.06955 | -55.21395 | 34602 ft | 507 kts | 207° |
| 2026-04-25 05:39 | 49.00869 | -55.26848 | 34606 ft | 508 kts | 207° |
| 2026-04-25 05:39 | 48.94771 | -55.32296 | 34595 ft | 508 kts | 207° |
| 2026-04-25 05:40 | 48.88665 | -55.37734 | 34594 ft | 509 kts | 207° |
| 2026-04-25 05:40 | 48.82585 | -55.43135 | 34584 ft | 509 kts | 207° |
| 2026-04-25 05:41 | 48.76468 | -55.48554 | 34577 ft | 509 kts | 207° |
| 2026-04-25 05:41 | 48.70341 | -55.53964 | 34572 ft | 509 kts | 207° |
| 2026-04-25 05:42 | 48.64208 | -55.59366 | 34564 ft | 510 kts | 207° |
| 2026-04-25 05:42 | 48.58080 | -55.64748 | 34565 ft | 510 kts | 207° |
| 2026-04-25 05:43 | 48.51942 | -55.70124 | 34561 ft | 510 kts | 207° |
| 2026-04-25 05:43 | 48.45804 | -55.75484 | 34559 ft | 510 kts | 207° |
| 2026-04-25 05:44 | 48.39704 | -55.80796 | 34546 ft | 510 kts | 207° |
| 2026-04-25 05:44 | 48.33558 | -55.86132 | 34538 ft | 510 kts | 207° |
| 2026-04-25 05:45 | 48.27406 | -55.91458 | 34539 ft | 510 kts | 207° |
| 2026-04-25 05:45 | 48.21259 | -55.96766 | 34545 ft | 510 kts | 207° |
| 2026-04-25 05:46 | 48.15101 | -56.02069 | 34535 ft | 510 kts | 207° |
| 2026-04-25 05:46 | 48.08946 | -56.07354 | 34526 ft | 510 kts | 207° |
| 2026-04-25 05:47 | 48.02797 | -56.12621 | 34517 ft | 509 kts | 207° |
| 2026-04-25 05:47 | 47.96637 | -56.17880 | 34508 ft | 510 kts | 207° |
| 2026-04-25 05:48 | 47.90521 | -56.23089 | 34500 ft | 510 kts | 207° |
| 2026-04-25 05:48 | 47.84356 | -56.28323 | 34501 ft | 510 kts | 207° |
| 2026-04-25 05:49 | 47.78190 | -56.33545 | 34515 ft | 510 kts | 207° |
| 2026-04-25 05:49 | 47.72024 | -56.38753 | 34510 ft | 510 kts | 207° |
| 2026-04-25 05:50 | 47.65852 | -56.43951 | 34516 ft | 510 kts | 207° |
| 2026-04-25 05:50 | 47.59677 | -56.49137 | 34495 ft | 510 kts | 207° |
| 2026-04-25 05:51 | 47.53503 | -56.54309 | 34517 ft | 509 kts | 207° |
| 2026-04-25 05:51 | 47.47371 | -56.59432 | 34522 ft | 509 kts | 207° |
| 2026-04-25 05:52 | 47.41153 | -56.64611 | 34518 ft | 510 kts | 207° |
| 2026-04-25 05:52 | 47.34967 | -56.69750 | 34545 ft | 510 kts | 207° |
| 2026-04-25 05:53 | 47.28812 | -56.74850 | 34537 ft | 511 kts | 207° |
| 2026-04-25 05:53 | 47.22608 | -56.79977 | 34551 ft | 511 kts | 207° |
| 2026-04-25 05:54 | 47.16396 | -56.85095 | 34551 ft | 512 kts | 207° |
| 2026-04-25 05:54 | 47.07072 | -56.92754 | 34557 ft | 512 kts | 207° |
| 2026-04-25 05:55 | 47.00856 | -56.97842 | 34564 ft | 512 kts | 207° |
| 2026-04-25 05:55 | 46.94639 | -57.02917 | 34562 ft | 511 kts | 207° |
| 2026-04-25 05:56 | 46.88421 | -57.07979 | 34568 ft | 511 kts | 207° |
| 2026-04-25 05:56 | 46.82235 | -57.13002 | 34571 ft | 511 kts | 207° |
| 2026-04-25 05:57 | 46.76024 | -57.18032 | 34569 ft | 511 kts | 207° |
| 2026-04-25 05:57 | 46.69813 | -57.23048 | 34568 ft | 511 kts | 207° |
| 2026-04-25 05:58 | 46.63588 | -57.28062 | 34569 ft | 511 kts | 207° |
| 2026-04-25 05:58 | 46.57353 | -57.33071 | 34571 ft | 511 kts | 207° |
| 2026-04-25 05:59 | 46.51118 | -57.38067 | 34577 ft | 512 kts | 207° |
| 2026-04-25 05:59 | 46.44923 | -57.43018 | 34583 ft | 512 kts | 207° |
| 2026-04-25 06:00 | 46.38681 | -57.47993 | 34571 ft | 512 kts | 207° |
| 2026-04-25 06:00 | 46.32433 | -57.52960 | 34581 ft | 512 kts | 207° |
| 2026-04-25 06:01 | 46.26195 | -57.57906 | 34576 ft | 512 kts | 207° |
| 2026-04-25 06:01 | 46.19949 | -57.62845 | 34591 ft | 512 kts | 207° |
| 2026-04-25 06:02 | 46.13697 | -57.67776 | 34582 ft | 512 kts | 207° |
| 2026-04-25 06:02 | 46.07447 | -57.72692 | 34594 ft | 512 kts | 207° |
| 2026-04-25 06:03 | 46.01199 | -57.77595 | 34581 ft | 511 kts | 207° |
| 2026-04-25 06:03 | 45.94953 | -57.82484 | 34591 ft | 511 kts | 207° |
| 2026-04-25 06:04 | 45.88750 | -57.87326 | 34592 ft | 510 kts | 207° |
| 2026-04-25 06:04 | 45.82511 | -57.92183 | 34593 ft | 510 kts | 207° |
| 2026-04-25 06:05 | 45.76269 | -57.97031 | 34595 ft | 510 kts | 207° |
| 2026-04-25 06:05 | 45.70030 | -58.01863 | 34609 ft | 509 kts | 207° |
| 2026-04-25 06:06 | 45.63789 | -58.06686 | 34608 ft | 509 kts | 207° |
| 2026-04-25 06:06 | 45.57547 | -58.11496 | 34607 ft | 509 kts | 207° |
| 2026-04-25 06:07 | 45.51311 | -58.16288 | 34602 ft | 508 kts | 207° |
| 2026-04-25 06:07 | 45.45127 | -58.21029 | 34618 ft | 508 kts | 207° |
| 2026-04-25 06:08 | 45.38894 | -58.25798 | 34622 ft | 508 kts | 207° |
| 2026-04-25 06:08 | 45.32657 | -58.30556 | 34619 ft | 510 kts | 207° |
| 2026-04-25 06:09 | 45.26386 | -58.35328 | 34636 ft | 512 kts | 207° |
| 2026-04-25 06:09 | 45.20108 | -58.40094 | 34645 ft | 510 kts | 208° |
| 2026-04-25 06:10 | 45.13858 | -58.44825 | 34637 ft | 507 kts | 208° |
| 2026-04-25 06:10 | 45.07647 | -58.49516 | 34632 ft | 505 kts | 208° |
| 2026-04-25 06:11 | 45.01489 | -58.54156 | 34653 ft | 505 kts | 208° |
| 2026-04-25 06:11 | 44.95247 | -58.58846 | 34657 ft | 510 kts | 209° |
| 2026-04-25 06:12 | 44.88952 | -58.63566 | 34656 ft | 513 kts | 208° |
| 2026-04-25 06:12 | 44.82646 | -58.68282 | 34653 ft | 511 kts | 208° |
| 2026-04-25 06:13 | 44.76376 | -58.72957 | 34666 ft | 508 kts | 208° |
| 2026-04-25 06:14 | 44.67046 | -58.79896 | 34678 ft | 506 kts | 209° |
| 2026-04-25 06:14 | 44.60858 | -58.84484 | 34693 ft | 506 kts | 209° |
| 2026-04-25 06:15 | 44.54603 | -58.89111 | 34689 ft | 511 kts | 209° |
| 2026-04-25 06:15 | 44.48268 | -58.93786 | 34683 ft | 516 kts | 208° |
| 2026-04-25 06:16 | 44.41915 | -58.98460 | 34688 ft | 514 kts | 209° |
| 2026-04-25 06:16 | 44.35601 | -59.03095 | 34691 ft | 511 kts | 209° |
| 2026-04-25 06:17 | 44.29311 | -59.07702 | 34699 ft | 508 kts | 209° |
| 2026-04-25 06:17 | 44.24110 | -59.11499 | 34708 ft | 506 kts | 209° |
| 2026-04-25 06:18 | 44.16838 | -59.16802 | 34713 ft | 509 kts | 208° |
| 2026-04-25 06:18 | 44.11567 | -59.20635 | 34723 ft | 511 kts | 208° |
| 2026-04-25 06:19 | 44.05245 | -59.25224 | 34712 ft | 512 kts | 209° |
| 2026-04-25 06:19 | 43.98924 | -59.29797 | 34710 ft | 512 kts | 208° |
| 2026-04-25 06:20 | 43.92606 | -59.34358 | 34719 ft | 512 kts | 209° |
| 2026-04-25 06:20 | 43.86333 | -59.38878 | 34729 ft | 510 kts | 209° |
| 2026-04-25 06:21 | 43.80040 | -59.43401 | 34741 ft | 509 kts | 209° |
| 2026-04-25 06:21 | 43.73741 | -59.47917 | 34732 ft | 509 kts | 209° |
| 2026-04-25 06:22 | 43.67457 | -59.52410 | 34737 ft | 507 kts | 208° |
| 2026-04-25 06:22 | 43.61226 | -59.56856 | 34752 ft | 506 kts | 208° |
| 2026-04-25 06:23 | 43.54962 | -59.61313 | 34754 ft | 506 kts | 210° |
| 2026-04-25 06:23 | 43.48695 | -59.65765 | 34757 ft | 506 kts | 209° |
| 2026-04-25 06:24 | 43.42433 | -59.70203 | 34761 ft | 506 kts | 210° |
| 2026-04-25 06:24 | 43.36179 | -59.74624 | 34775 ft | 504 kts | 210° |
| 2026-04-25 06:25 | 43.29954 | -59.79011 | 34760 ft | 501 kts | 210° |
| 2026-04-25 06:25 | 43.23766 | -59.83365 | 34764 ft | 499 kts | 209° |
| 2026-04-25 06:26 | 43.17608 | -59.87689 | 34767 ft | 496 kts | 210° |
| 2026-04-25 06:26 | 43.11507 | -59.91964 | 34772 ft | 495 kts | 209° |
| 2026-04-25 06:27 | 43.05374 | -59.96252 | 34780 ft | 495 kts | 210° |
| 2026-04-25 06:27 | 42.99800 | -60.01574 | 34803 ft | 487 kts | 226° |
| 2026-04-25 06:28 | 42.95483 | -60.08611 | 34800 ft | 482 kts | 238° |
| 2026-04-25 06:28 | 42.91724 | -60.16196 | 34802 ft | 484 kts | 239° |
| 2026-04-25 06:29 | 42.87936 | -60.23796 | 34800 ft | 485 kts | 238° |
| 2026-04-25 06:29 | 42.84094 | -60.31392 | 34798 ft | 486 kts | 238° |
| 2026-04-25 06:30 | 42.80263 | -60.38903 | 34803 ft | 485 kts | 239° |
| 2026-04-25 06:30 | 42.76379 | -60.46494 | 34801 ft | 485 kts | 238° |
| 2026-04-25 06:31 | 42.72546 | -60.53974 | 34805 ft | 485 kts | 238° |
| 2026-04-25 06:31 | 42.68685 | -60.61492 | 34806 ft | 485 kts | 238° |
| 2026-04-25 06:32 | 42.64816 | -60.69005 | 34795 ft | 485 kts | 238° |
| 2026-04-25 06:32 | 42.60942 | -60.76511 | 34804 ft | 485 kts | 238° |
| 2026-04-25 06:33 | 42.57066 | -60.84000 | 34813 ft | 484 kts | 238° |
| 2026-04-25 06:33 | 42.53194 | -60.91462 | 34812 ft | 484 kts | 238° |
| 2026-04-25 06:34 | 42.49321 | -60.98911 | 34804 ft | 483 kts | 237° |
| 2026-04-25 06:34 | 42.45447 | -61.06342 | 34816 ft | 482 kts | 238° |
| 2026-04-25 06:35 | 42.41599 | -61.13709 | 34820 ft | 482 kts | 238° |
| 2026-04-25 06:35 | 42.37687 | -61.21079 | 34812 ft | 483 kts | 234° |
| 2026-04-25 06:36 | 42.33356 | -61.28038 | 34824 ft | 483 kts | 232° |
| 2026-04-25 06:36 | 42.28978 | -61.34933 | 34935 ft | 486 kts | 232° |
| 2026-04-25 06:36 | 42.26778 | -61.38404 | 35212 ft | 485 kts | 232° |
| 2026-04-25 06:37 | 42.24586 | -61.41867 | 35533 ft | 483 kts | 233° |
| 2026-04-25 06:37 | 42.22415 | -61.45302 | 35879 ft | 481 kts | 233° |
| 2026-04-25 06:37 | 42.20235 | -61.48753 | 36067 ft | 482 kts | 233° |
| 2026-04-25 06:37 | 42.18058 | -61.52199 | 36326 ft | 482 kts | 233° |
| 2026-04-25 06:38 | 42.15883 | -61.55638 | 36602 ft | 482 kts | 233° |
| 2026-04-25 06:38 | 42.13704 | -61.59080 | 36750 ft | 483 kts | 233° |
| 2026-04-25 06:38 | 42.11549 | -61.62481 | 36794 ft | 485 kts | 233° |
| 2026-04-25 06:39 | 42.07174 | -61.69366 | 36830 ft | 482 kts | 233° |
| 2026-04-25 06:39 | 42.02828 | -61.76188 | 36839 ft | 479 kts | 233° |
| 2026-04-25 06:40 | 41.98492 | -61.82981 | 36842 ft | 477 kts | 233° |
| 2026-04-25 06:40 | 41.94169 | -61.89740 | 36836 ft | 477 kts | 233° |
| 2026-04-25 06:41 | 41.89844 | -61.96487 | 36845 ft | 477 kts | 233° |
| 2026-04-25 06:41 | 41.85503 | -62.03242 | 36842 ft | 478 kts | 233° |
| 2026-04-25 06:42 | 41.81181 | -62.09953 | 36851 ft | 478 kts | 233° |
| 2026-04-25 06:42 | 41.76823 | -62.16705 | 36831 ft | 479 kts | 233° |
| 2026-04-25 06:43 | 41.72448 | -62.23465 | 36854 ft | 480 kts | 233° |
| 2026-04-25 06:43 | 41.68068 | -62.30220 | 36841 ft | 480 kts | 233° |
| 2026-04-25 06:44 | 41.63689 | -62.36957 | 36843 ft | 480 kts | 233° |
| 2026-04-25 06:44 | 41.59306 | -62.43686 | 36841 ft | 480 kts | 233° |
| 2026-04-25 06:45 | 41.54914 | -62.50411 | 36828 ft | 479 kts | 233° |
| 2026-04-25 06:45 | 41.50564 | -62.57058 | 36838 ft | 478 kts | 233° |
| 2026-04-25 06:46 | 41.46186 | -62.63735 | 36849 ft | 478 kts | 233° |
| 2026-04-25 06:46 | 41.41809 | -62.70395 | 36849 ft | 478 kts | 233° |
| 2026-04-25 06:47 | 41.37424 | -62.77051 | 36852 ft | 478 kts | 233° |
| 2026-04-25 06:47 | 41.33033 | -62.83703 | 36844 ft | 478 kts | 233° |
| 2026-04-25 06:48 | 41.28631 | -62.90356 | 36826 ft | 478 kts | 233° |
| 2026-04-25 06:48 | 41.24262 | -62.96944 | 36848 ft | 478 kts | 233° |
| 2026-04-25 06:49 | 41.19856 | -63.03574 | 36856 ft | 478 kts | 233° |
| 2026-04-25 06:49 | 41.15442 | -63.10200 | 36852 ft | 479 kts | 233° |
| 2026-04-25 06:50 | 41.11028 | -63.16812 | 36843 ft | 478 kts | 233° |
| 2026-04-25 06:50 | 41.06622 | -63.23397 | 36855 ft | 477 kts | 233° |
| 2026-04-25 06:51 | 41.02216 | -63.29970 | 36857 ft | 477 kts | 233° |
| 2026-04-25 06:51 | 40.97812 | -63.36524 | 36847 ft | 476 kts | 233° |
| 2026-04-25 06:52 | 40.93411 | -63.43058 | 36857 ft | 475 kts | 233° |
| 2026-04-25 06:52 | 40.89039 | -63.49537 | 36852 ft | 475 kts | 233° |
| 2026-04-25 06:53 | 40.84633 | -63.56051 | 36856 ft | 475 kts | 234° |
| 2026-04-25 06:53 | 40.80234 | -63.62543 | 36860 ft | 475 kts | 234° |
| 2026-04-25 06:54 | 40.75827 | -63.69031 | 36878 ft | 475 kts | 233° |
| 2026-04-25 06:54 | 40.71409 | -63.75522 | 36860 ft | 475 kts | 234° |
| 2026-04-25 06:55 | 40.66997 | -63.81989 | 36867 ft | 474 kts | 234° |
| 2026-04-25 06:55 | 40.62584 | -63.88445 | 36880 ft | 474 kts | 234° |
| 2026-04-25 06:56 | 40.58194 | -63.94852 | 36879 ft | 474 kts | 234° |
| 2026-04-25 06:56 | 40.53777 | -64.01284 | 36870 ft | 473 kts | 234° |
| 2026-04-25 06:57 | 40.49368 | -64.07693 | 36874 ft | 472 kts | 234° |
| 2026-04-25 06:57 | 40.44958 | -64.14090 | 36887 ft | 472 kts | 234° |
| 2026-04-25 06:58 | 40.40553 | -64.20466 | 36885 ft | 471 kts | 234° |
| 2026-04-25 06:58 | 40.36148 | -64.26827 | 36889 ft | 470 kts | 234° |
| 2026-04-25 06:59 | 40.31748 | -64.33170 | 36885 ft | 470 kts | 234° |
| 2026-04-25 06:59 | 40.27347 | -64.39499 | 36882 ft | 469 kts | 234° |
| 2026-04-25 07:00 | 40.22949 | -64.45812 | 36891 ft | 469 kts | 234° |
| 2026-04-25 07:00 | 40.18555 | -64.52106 | 36904 ft | 468 kts | 234° |
| 2026-04-25 07:01 | 40.14163 | -64.58384 | 36904 ft | 468 kts | 234° |
| 2026-04-25 07:01 | 40.09762 | -64.64661 | 36900 ft | 467 kts | 234° |
| 2026-04-25 07:02 | 40.05403 | -64.70865 | 36909 ft | 466 kts | 234° |
| 2026-04-25 07:02 | 40.01019 | -64.77093 | 36910 ft | 465 kts | 234° |
| 2026-04-25 07:03 | 39.96640 | -64.83302 | 36908 ft | 465 kts | 234° |
| 2026-04-25 07:03 | 39.92257 | -64.89503 | 36916 ft | 465 kts | 234° |
| 2026-04-25 07:04 | 39.87877 | -64.95688 | 36916 ft | 465 kts | 234° |
| 2026-04-25 07:04 | 39.83486 | -65.01875 | 36912 ft | 465 kts | 234° |
| 2026-04-25 07:05 | 39.79119 | -65.08016 | 36914 ft | 465 kts | 234° |
| 2026-04-25 07:05 | 39.74717 | -65.14194 | 36924 ft | 465 kts | 234° |
| 2026-04-25 07:06 | 39.70311 | -65.20365 | 36921 ft | 466 kts | 234° |
| 2026-04-25 07:06 | 39.65901 | -65.26529 | 36906 ft | 466 kts | 234° |
| 2026-04-25 07:07 | 39.61485 | -65.32689 | 36909 ft | 466 kts | 234° |
| 2026-04-25 07:07 | 39.57813 | -65.37801 | 36933 ft | 466 kts | 234° |
| 2026-04-25 07:08 | 39.52671 | -65.44947 | 36937 ft | 466 kts | 234° |
| 2026-04-25 07:08 | 39.48242 | -65.51088 | 36933 ft | 466 kts | 234° |
| 2026-04-25 07:09 | 39.44533 | -65.56221 | 36948 ft | 466 kts | 234° |
| 2026-04-25 07:09 | 39.40132 | -65.62301 | 36931 ft | 466 kts | 234° |
| 2026-04-25 07:10 | 39.35698 | -65.68415 | 36906 ft | 466 kts | 234° |
| 2026-04-25 07:10 | 39.31265 | -65.74514 | 36939 ft | 465 kts | 234° |
| 2026-04-25 07:11 | 39.26832 | -65.80602 | 36947 ft | 465 kts | 234° |
| 2026-04-25 07:11 | 39.22394 | -65.86686 | 36948 ft | 465 kts | 234° |
| 2026-04-25 07:12 | 39.17956 | -65.92756 | 36924 ft | 464 kts | 234° |
| 2026-04-25 07:12 | 39.11311 | -66.01823 | 36952 ft | 464 kts | 234° |
| 2026-04-25 07:13 | 39.06895 | -66.07835 | 36955 ft | 465 kts | 234° |
| 2026-04-25 07:13 | 39.02446 | -66.13880 | 36927 ft | 465 kts | 234° |
| 2026-04-25 07:14 | 38.97996 | -66.19913 | 36944 ft | 464 kts | 234° |
| 2026-04-25 07:14 | 38.93545 | -66.25935 | 36939 ft | 464 kts | 234° |
| 2026-04-25 07:15 | 38.89115 | -66.31919 | 36959 ft | 465 kts | 234° |
| 2026-04-25 07:15 | 38.84651 | -66.37938 | 36957 ft | 465 kts | 234° |
| 2026-04-25 07:16 | 38.80187 | -66.43944 | 36962 ft | 465 kts | 234° |
| 2026-04-25 07:16 | 38.75714 | -66.49951 | 36962 ft | 466 kts | 234° |
| 2026-04-25 07:17 | 38.71232 | -66.55959 | 36965 ft | 466 kts | 234° |
| 2026-04-25 07:17 | 38.66752 | -66.61954 | 36963 ft | 465 kts | 233° |
| 2026-04-25 07:18 | 38.62376 | -66.68030 | 36971 ft | 460 kts | 239° |
| 2026-04-25 07:18 | 38.58608 | -66.74592 | 36971 ft | 457 kts | 241° |
| 2026-04-25 07:19 | 38.54899 | -66.81132 | 36975 ft | 458 kts | 241° |
| 2026-04-25 07:19 | 38.51145 | -66.87697 | 36983 ft | 457 kts | 240° |
| 2026-04-25 07:20 | 38.47381 | -66.94238 | 36983 ft | 457 kts | 240° |
| 2026-04-25 07:20 | 38.43601 | -67.00785 | 36983 ft | 457 kts | 240° |
| 2026-04-25 07:21 | 38.39845 | -67.07278 | 36981 ft | 458 kts | 240° |
| 2026-04-25 07:21 | 38.36062 | -67.13805 | 36983 ft | 458 kts | 240° |
| 2026-04-25 07:22 | 38.32273 | -67.20331 | 36984 ft | 458 kts | 240° |
| 2026-04-25 07:22 | 38.28478 | -67.26853 | 36977 ft | 458 kts | 240° |
| 2026-04-25 07:23 | 38.24682 | -67.33365 | 36990 ft | 458 kts | 240° |
| 2026-04-25 07:23 | 38.20875 | -67.39882 | 36970 ft | 458 kts | 240° |
| 2026-04-25 07:24 | 38.17064 | -67.46393 | 36987 ft | 459 kts | 240° |
| 2026-04-25 07:24 | 38.13275 | -67.52853 | 36993 ft | 459 kts | 240° |
| 2026-04-25 07:25 | 38.09456 | -67.59351 | 36982 ft | 459 kts | 241° |
| 2026-04-25 07:25 | 38.05633 | -67.65845 | 36966 ft | 459 kts | 242° |
| 2026-04-25 07:26 | 38.01803 | -67.72338 | 36988 ft | 459 kts | 242° |
| 2026-04-25 07:26 | 37.97966 | -67.78829 | 36996 ft | 460 kts | 242° |
| 2026-04-25 07:27 | 37.94127 | -67.85310 | 36997 ft | 460 kts | 241° |
| 2026-04-25 07:27 | 37.90306 | -67.91748 | 36998 ft | 460 kts | 241° |
| 2026-04-25 07:28 | 37.86465 | -67.98205 | 36991 ft | 459 kts | 242° |
| 2026-04-25 07:28 | 37.82626 | -68.04648 | 36995 ft | 458 kts | 242° |
| 2026-04-25 07:29 | 37.78793 | -68.11071 | 36997 ft | 457 kts | 242° |
| 2026-04-25 07:29 | 37.74954 | -68.17489 | 36994 ft | 457 kts | 242° |
| 2026-04-25 07:30 | 37.71118 | -68.23889 | 36962 ft | 457 kts | 243° |
| 2026-04-25 07:30 | 37.67280 | -68.30284 | 36990 ft | 458 kts | 243° |
| 2026-04-25 07:31 | 37.63447 | -68.36659 | 37001 ft | 460 kts | 243° |
| 2026-04-25 07:31 | 37.59571 | -68.43091 | 36998 ft | 461 kts | 243° |
| 2026-04-25 07:32 | 37.55675 | -68.49541 | 36962 ft | 463 kts | 243° |
| 2026-04-25 07:32 | 37.51771 | -68.55990 | 36986 ft | 463 kts | 243° |
| 2026-04-25 07:33 | 37.47856 | -68.62450 | 36994 ft | 465 kts | 243° |
| 2026-04-25 07:33 | 37.43923 | -68.68925 | 36996 ft | 466 kts | 243° |
| 2026-04-25 07:34 | 37.39974 | -68.75413 | 36995 ft | 467 kts | 243° |
| 2026-04-25 07:34 | 37.36021 | -68.81895 | 36992 ft | 466 kts | 242° |
| 2026-04-25 07:35 | 37.32064 | -68.88373 | 36975 ft | 467 kts | 242° |
| 2026-04-25 07:35 | 37.28100 | -68.94851 | 36993 ft | 468 kts | 242° |
| 2026-04-25 07:36 | 37.24147 | -69.01293 | 36996 ft | 470 kts | 242° |
| 2026-04-25 07:36 | 37.20147 | -69.07791 | 36979 ft | 470 kts | 242° |
| 2026-04-25 07:37 | 37.16140 | -69.14291 | 36993 ft | 471 kts | 242° |
| 2026-04-25 07:37 | 37.12123 | -69.20799 | 36954 ft | 471 kts | 242° |
| 2026-04-25 07:38 | 37.08107 | -69.27290 | 36983 ft | 472 kts | 242° |
| 2026-04-25 07:38 | 37.04109 | -69.33743 | 36961 ft | 472 kts | 241° |
| 2026-04-25 07:39 | 37.00076 | -69.40237 | 36983 ft | 473 kts | 241° |
| 2026-04-25 07:39 | 36.96038 | -69.46729 | 36988 ft | 473 kts | 241° |
| 2026-04-25 07:40 | 36.91987 | -69.53228 | 36970 ft | 473 kts | 241° |
| 2026-04-25 07:40 | 36.87932 | -69.59721 | 36984 ft | 473 kts | 241° |
| 2026-04-25 07:41 | 36.83879 | -69.66197 | 36976 ft | 472 kts | 240° |
| 2026-04-25 07:41 | 36.79830 | -69.72655 | 36978 ft | 472 kts | 240° |
| 2026-04-25 07:42 | 36.75804 | -69.79064 | 36982 ft | 472 kts | 240° |
| 2026-04-25 07:42 | 36.71749 | -69.85508 | 36980 ft | 472 kts | 240° |
| 2026-04-25 07:43 | 36.67693 | -69.91941 | 36977 ft | 472 kts | 240° |
| 2026-04-25 07:43 | 36.63636 | -69.98363 | 36980 ft | 471 kts | 240° |
| 2026-04-25 07:44 | 36.59579 | -70.04772 | 36976 ft | 471 kts | 240° |
| 2026-04-25 07:44 | 36.55518 | -70.11177 | 36975 ft | 471 kts | 240° |
| 2026-04-25 07:45 | 36.51455 | -70.17572 | 36978 ft | 471 kts | 240° |
| 2026-04-25 07:45 | 36.47388 | -70.23962 | 36972 ft | 470 kts | 239° |
| 2026-04-25 07:46 | 36.43328 | -70.30327 | 36971 ft | 470 kts | 239° |
| 2026-04-25 07:46 | 36.39288 | -70.36649 | 36973 ft | 470 kts | 239° |
| 2026-04-25 07:47 | 36.35222 | -70.43003 | 36970 ft | 470 kts | 239° |
| 2026-04-25 07:47 | 36.31146 | -70.49358 | 36952 ft | 470 kts | 238° |
| 2026-04-25 07:48 | 36.27071 | -70.55701 | 36950 ft | 470 kts | 238° |
| 2026-04-25 07:48 | 36.22993 | -70.62035 | 36960 ft | 470 kts | 238° |
| 2026-04-25 07:49 | 36.18907 | -70.68371 | 36962 ft | 471 kts | 238° |
| 2026-04-25 07:49 | 36.14811 | -70.74711 | 36961 ft | 472 kts | 238° |
| 2026-04-25 07:50 | 36.10737 | -70.81006 | 36952 ft | 472 kts | 237° |
| 2026-04-25 07:50 | 36.06627 | -70.87343 | 36953 ft | 472 kts | 237° |
| 2026-04-25 07:51 | 36.02508 | -70.93682 | 36951 ft | 473 kts | 237° |
| 2026-04-25 07:51 | 35.98379 | -71.00025 | 36955 ft | 474 kts | 237° |
| 2026-04-25 07:52 | 35.94240 | -71.06372 | 36937 ft | 475 kts | 237° |
| 2026-04-25 07:52 | 35.90091 | -71.12723 | 36951 ft | 475 kts | 237° |
| 2026-04-25 07:53 | 35.85968 | -71.19021 | 36948 ft | 475 kts | 237° |
| 2026-04-25 07:53 | 35.81806 | -71.25367 | 36948 ft | 475 kts | 237° |
| 2026-04-25 07:54 | 35.77646 | -71.31700 | 36948 ft | 475 kts | 237° |
| 2026-04-25 07:54 | 35.73481 | -71.38030 | 36937 ft | 475 kts | 236° |
| 2026-04-25 07:55 | 35.69315 | -71.44349 | 36951 ft | 475 kts | 236° |
| 2026-04-25 07:55 | 35.65141 | -71.50670 | 36942 ft | 476 kts | 236° |
| 2026-04-25 07:56 | 35.60961 | -71.56985 | 36931 ft | 476 kts | 236° |
| 2026-04-25 07:56 | 35.56770 | -71.63304 | 36940 ft | 477 kts | 236° |
| 2026-04-25 07:57 | 35.52574 | -71.69623 | 36931 ft | 478 kts | 235° |
| 2026-04-25 07:57 | 35.48369 | -71.75943 | 36934 ft | 478 kts | 235° |
| 2026-04-25 07:58 | 35.44153 | -71.82270 | 36932 ft | 479 kts | 235° |
| 2026-04-25 07:58 | 35.39926 | -71.88602 | 36927 ft | 480 kts | 235° |
| 2026-04-25 07:59 | 35.35721 | -71.94892 | 36910 ft | 480 kts | 234° |
| 2026-04-25 07:59 | 35.31581 | -72.01292 | 36924 ft | 477 kts | 240° |
| 2026-04-25 08:00 | 35.28075 | -72.08161 | 36925 ft | 476 kts | 242° |
| 2026-04-25 08:00 | 35.24620 | -72.15067 | 36924 ft | 476 kts | 242° |
| 2026-04-25 08:01 | 35.21130 | -72.21957 | 36922 ft | 477 kts | 242° |
| 2026-04-25 08:01 | 35.17614 | -72.28839 | 36891 ft | 477 kts | 241° |
| 2026-04-25 08:02 | 35.14692 | -72.34545 | 36917 ft | 477 kts | 241° |
| 2026-04-25 08:02 | 35.11168 | -72.41421 | 36920 ft | 477 kts | 241° |
| 2026-04-25 08:03 | 35.07641 | -72.48292 | 36919 ft | 477 kts | 241° |
| 2026-04-25 08:03 | 35.04052 | -72.55120 | 36920 ft | 479 kts | 237° |
| 2026-04-25 08:04 | 34.99877 | -72.61485 | 36916 ft | 481 kts | 233° |
| 2026-04-25 08:04 | 34.95612 | -72.67769 | 36913 ft | 481 kts | 233° |
| 2026-04-25 08:05 | 34.91389 | -72.74023 | 36922 ft | 481 kts | 233° |
| 2026-04-25 08:05 | 34.87151 | -72.80334 | 36920 ft | 481 kts | 233° |
| 2026-04-25 08:06 | 34.82918 | -72.86643 | 36913 ft | 481 kts | 233° |
| 2026-04-25 08:06 | 34.78679 | -72.92949 | 36912 ft | 481 kts | 233° |
| 2026-04-25 08:07 | 34.74433 | -72.99251 | 36903 ft | 481 kts | 233° |
| 2026-04-25 08:07 | 34.70183 | -73.05547 | 36911 ft | 482 kts | 233° |
| 2026-04-25 08:08 | 34.65926 | -73.11841 | 36911 ft | 482 kts | 233° |
| 2026-04-25 08:08 | 34.61692 | -73.18091 | 36908 ft | 482 kts | 233° |
| 2026-04-25 08:09 | 34.57427 | -73.24374 | 36899 ft | 482 kts | 233° |
| 2026-04-25 08:09 | 34.53157 | -73.30654 | 36895 ft | 482 kts | 233° |
| 2026-04-25 08:10 | 34.48892 | -73.36916 | 36916 ft | 481 kts | 233° |
| 2026-04-25 08:10 | 34.44628 | -73.43165 | 36911 ft | 481 kts | 233° |
| 2026-04-25 08:11 | 34.40360 | -73.49410 | 36915 ft | 481 kts | 233° |
| 2026-04-25 08:11 | 34.36093 | -73.55642 | 36903 ft | 480 kts | 233° |
| 2026-04-25 08:12 | 34.31825 | -73.61864 | 36909 ft | 480 kts | 233° |
| 2026-04-25 08:12 | 34.27590 | -73.68027 | 36891 ft | 479 kts | 232° |
| 2026-04-25 08:13 | 34.23329 | -73.74218 | 36918 ft | 479 kts | 232° |
| 2026-04-25 08:14 | 34.16924 | -73.83503 | 36911 ft | 480 kts | 232° |
| 2026-04-25 08:14 | 34.12638 | -73.89703 | 36909 ft | 479 kts | 232° |
| 2026-04-25 08:15 | 34.08360 | -73.95881 | 36914 ft | 479 kts | 232° |
| 2026-04-25 08:15 | 34.04085 | -74.02042 | 36901 ft | 479 kts | 232° |
| 2026-04-25 08:16 | 33.99837 | -74.08157 | 36915 ft | 479 kts | 232° |
| 2026-04-25 08:16 | 33.95547 | -74.14319 | 36916 ft | 480 kts | 232° |
| 2026-04-25 08:17 | 33.91255 | -74.20475 | 36920 ft | 480 kts | 232° |
| 2026-04-25 08:17 | 33.86956 | -74.26629 | 36921 ft | 480 kts | 232° |
| 2026-04-25 08:18 | 33.82654 | -74.32778 | 36923 ft | 480 kts | 232° |
| 2026-04-25 08:18 | 33.78353 | -74.38915 | 36914 ft | 480 kts | 231° |
| 2026-04-25 08:19 | 33.74042 | -74.45056 | 36916 ft | 481 kts | 232° |
| 2026-04-25 08:19 | 33.69731 | -74.51187 | 36925 ft | 480 kts | 232° |
| 2026-04-25 08:20 | 33.65444 | -74.57275 | 36925 ft | 480 kts | 231° |
| 2026-04-25 08:20 | 33.61157 | -74.63404 | 36926 ft | 479 kts | 232° |
| 2026-04-25 08:21 | 33.56906 | -74.69569 | 36928 ft | 479 kts | 232° |
| 2026-04-25 08:21 | 33.52663 | -74.75721 | 36928 ft | 478 kts | 232° |
| 2026-04-25 08:22 | 33.48415 | -74.81857 | 36927 ft | 477 kts | 232° |
| 2026-04-25 08:22 | 33.44201 | -74.87926 | 36932 ft | 476 kts | 232° |
| 2026-04-25 08:23 | 33.39960 | -74.94023 | 36934 ft | 476 kts | 232° |
| 2026-04-25 08:23 | 33.35725 | -75.00103 | 36939 ft | 475 kts | 232° |
| 2026-04-25 08:24 | 33.31487 | -75.06175 | 36933 ft | 475 kts | 232° |
| 2026-04-25 08:24 | 33.27249 | -75.12238 | 36938 ft | 474 kts | 232° |
| 2026-04-25 08:25 | 33.23025 | -75.18271 | 36938 ft | 473 kts | 232° |
| 2026-04-25 08:25 | 33.18832 | -75.24249 | 36935 ft | 472 kts | 232° |
| 2026-04-25 08:26 | 33.14614 | -75.30254 | 36938 ft | 471 kts | 232° |
| 2026-04-25 08:26 | 33.10399 | -75.36245 | 36937 ft | 471 kts | 232° |
| 2026-04-25 08:27 | 33.06180 | -75.42231 | 36946 ft | 471 kts | 232° |
| 2026-04-25 08:27 | 33.01969 | -75.48197 | 36944 ft | 470 kts | 232° |
| 2026-04-25 08:28 | 32.97753 | -75.54159 | 36941 ft | 470 kts | 232° |
| 2026-04-25 08:28 | 32.93562 | -75.60076 | 36944 ft | 470 kts | 232° |
| 2026-04-25 08:29 | 32.89340 | -75.66028 | 36948 ft | 470 kts | 232° |
| 2026-04-25 08:29 | 32.85110 | -75.71982 | 36945 ft | 470 kts | 232° |
| 2026-04-25 08:30 | 32.80888 | -75.77914 | 36940 ft | 470 kts | 232° |
| 2026-04-25 08:30 | 32.76669 | -75.83832 | 36957 ft | 469 kts | 231° |
| 2026-04-25 08:31 | 32.72476 | -75.89706 | 36956 ft | 469 kts | 231° |
| 2026-04-25 08:31 | 32.68250 | -75.95615 | 36941 ft | 469 kts | 231° |
| 2026-04-25 08:32 | 32.64026 | -76.01512 | 36943 ft | 469 kts | 231° |
| 2026-04-25 08:32 | 32.59795 | -76.07410 | 36941 ft | 469 kts | 231° |
| 2026-04-25 08:33 | 32.55564 | -76.13299 | 36957 ft | 469 kts | 231° |
| 2026-04-25 08:33 | 32.51328 | -76.19185 | 36950 ft | 469 kts | 231° |
| 2026-04-25 08:34 | 32.47121 | -76.25020 | 36944 ft | 469 kts | 231° |
| 2026-04-25 08:34 | 32.42876 | -76.30900 | 36948 ft | 469 kts | 231° |
| 2026-04-25 08:35 | 32.38629 | -76.36774 | 36961 ft | 469 kts | 231° |
| 2026-04-25 08:35 | 32.34381 | -76.42639 | 36957 ft | 469 kts | 231° |
| 2026-04-25 08:36 | 32.30130 | -76.48500 | 36938 ft | 469 kts | 231° |
| 2026-04-25 08:36 | 32.25907 | -76.54312 | 36943 ft | 469 kts | 231° |
| 2026-04-25 08:37 | 32.21656 | -76.60155 | 36961 ft | 469 kts | 231° |
| 2026-04-25 08:37 | 32.17403 | -76.65990 | 36955 ft | 469 kts | 231° |
| 2026-04-25 08:38 | 32.13148 | -76.71820 | 36956 ft | 469 kts | 231° |
| 2026-04-25 08:38 | 32.08891 | -76.77644 | 36957 ft | 468 kts | 231° |
| 2026-04-25 08:39 | 32.04630 | -76.83463 | 36953 ft | 468 kts | 230° |
| 2026-04-25 08:39 | 32.00391 | -76.89245 | 36946 ft | 469 kts | 230° |
| 2026-04-25 08:40 | 31.96125 | -76.95056 | 36959 ft | 469 kts | 230° |
| 2026-04-25 08:40 | 31.91725 | -77.00722 | 36955 ft | 470 kts | 224° |
| 2026-04-25 08:41 | 31.86902 | -77.05916 | 36958 ft | 470 kts | 224° |
| 2026-04-25 08:41 | 31.82064 | -77.11102 | 36955 ft | 470 kts | 224° |
| 2026-04-25 08:42 | 31.77273 | -77.16280 | 36955 ft | 470 kts | 224° |
| 2026-04-25 08:42 | 31.72459 | -77.21493 | 36959 ft | 470 kts | 224° |
| 2026-04-25 08:43 | 31.67641 | -77.26702 | 36957 ft | 471 kts | 224° |
| 2026-04-25 08:43 | 31.62817 | -77.31903 | 36962 ft | 471 kts | 224° |
| 2026-04-25 08:44 | 31.57986 | -77.37099 | 36955 ft | 471 kts | 224° |
| 2026-04-25 08:44 | 31.53150 | -77.42294 | 36960 ft | 472 kts | 224° |
| 2026-04-25 08:45 | 31.48311 | -77.47488 | 36959 ft | 472 kts | 224° |
| 2026-04-25 08:45 | 31.43468 | -77.52677 | 36955 ft | 472 kts | 224° |
| 2026-04-25 08:46 | 31.38652 | -77.57831 | 36958 ft | 472 kts | 224° |
| 2026-04-25 08:46 | 31.33804 | -77.63014 | 36960 ft | 472 kts | 224° |
| 2026-04-25 08:47 | 31.28942 | -77.68202 | 36962 ft | 473 kts | 224° |
| 2026-04-25 08:47 | 31.24498 | -77.73841 | 36962 ft | 471 kts | 235° |
| 2026-04-25 08:48 | 31.20655 | -77.80032 | 36967 ft | 471 kts | 235° |
| 2026-04-25 08:48 | 31.16788 | -77.86222 | 36963 ft | 472 kts | 235° |
| 2026-04-25 08:49 | 31.12887 | -77.92386 | 36961 ft | 472 kts | 234° |
| 2026-04-25 08:49 | 31.09002 | -77.98507 | 36956 ft | 473 kts | 235° |
| 2026-04-25 08:50 | 31.05090 | -78.04679 | 36964 ft | 473 kts | 235° |
| 2026-04-25 08:50 | 31.01184 | -78.10848 | 36960 ft | 473 kts | 235° |
| 2026-04-25 08:51 | 30.97268 | -78.17024 | 36957 ft | 474 kts | 235° |
| 2026-04-25 08:51 | 30.93347 | -78.23195 | 36962 ft | 474 kts | 235° |
| 2026-04-25 08:52 | 30.89401 | -78.29338 | 36960 ft | 474 kts | 234° |
| 2026-04-25 08:52 | 30.85446 | -78.35465 | 36958 ft | 474 kts | 234° |
| 2026-04-25 08:53 | 30.81488 | -78.41602 | 36961 ft | 473 kts | 234° |
| 2026-04-25 08:53 | 30.77537 | -78.47729 | 36964 ft | 473 kts | 235° |
| 2026-04-25 08:54 | 30.73613 | -78.53826 | 36963 ft | 473 kts | 235° |
| 2026-04-25 08:54 | 30.69664 | -78.59954 | 36967 ft | 473 kts | 235° |
| 2026-04-25 08:55 | 30.65719 | -78.66065 | 36962 ft | 473 kts | 234° |
| 2026-04-25 08:55 | 30.62582 | -78.71254 | 36958 ft | 471 kts | 242° |
| 2026-04-25 08:56 | 30.59405 | -78.77887 | 36965 ft | 470 kts | 243° |
| 2026-04-25 08:56 | 30.56258 | -78.84546 | 36962 ft | 471 kts | 243° |
| 2026-04-25 08:57 | 30.53083 | -78.91196 | 36959 ft | 471 kts | 243° |
| 2026-04-25 08:57 | 30.49886 | -78.97840 | 36966 ft | 472 kts | 243° |
| 2026-04-25 08:58 | 30.46681 | -79.04482 | 36958 ft | 472 kts | 243° |
| 2026-04-25 08:58 | 30.43472 | -79.11118 | 36956 ft | 472 kts | 243° |
| 2026-04-25 08:59 | 30.40265 | -79.17744 | 36950 ft | 472 kts | 243° |
| 2026-04-25 08:59 | 30.37049 | -79.24377 | 36953 ft | 472 kts | 243° |
| 2026-04-25 09:00 | 30.33835 | -79.30995 | 36955 ft | 472 kts | 243° |
| 2026-04-25 09:00 | 30.30633 | -79.37576 | 36957 ft | 472 kts | 243° |
| 2026-04-25 09:01 | 30.27409 | -79.44191 | 36949 ft | 472 kts | 243° |
| 2026-04-25 09:01 | 30.24182 | -79.50803 | 36957 ft | 472 kts | 243° |
| 2026-04-25 09:02 | 30.20950 | -79.57412 | 36956 ft | 472 kts | 243° |
| 2026-04-25 09:02 | 30.17713 | -79.64023 | 36960 ft | 473 kts | 243° |
| 2026-04-25 09:03 | 30.14467 | -79.70638 | 36959 ft | 473 kts | 243° |
| 2026-04-25 09:03 | 30.11217 | -79.77252 | 36959 ft | 473 kts | 243° |
| 2026-04-25 09:04 | 30.07963 | -79.83863 | 36957 ft | 474 kts | 243° |
| 2026-04-25 09:04 | 30.04726 | -79.90430 | 36958 ft | 474 kts | 243° |
| 2026-04-25 09:05 | 30.01460 | -79.97045 | 36947 ft | 474 kts | 243° |
| 2026-04-25 09:05 | 29.97938 | -80.03481 | 36959 ft | 476 kts | 237° |
| 2026-04-25 09:06 | 29.94069 | -80.09672 | 36954 ft | 476 kts | 237° |
| 2026-04-25 09:06 | 29.90190 | -80.15857 | 36952 ft | 475 kts | 237° |
| 2026-04-25 09:07 | 29.86326 | -80.22058 | 36948 ft | 475 kts | 237° |
| 2026-04-25 09:07 | 29.82480 | -80.28246 | 36955 ft | 475 kts | 237° |
| 2026-04-25 09:08 | 29.78629 | -80.34436 | 36951 ft | 475 kts | 237° |
| 2026-04-25 09:08 | 29.74798 | -80.40583 | 36949 ft | 475 kts | 237° |
| 2026-04-25 09:09 | 29.70941 | -80.46759 | 36946 ft | 475 kts | 237° |
| 2026-04-25 09:09 | 29.67088 | -80.52922 | 36948 ft | 474 kts | 237° |
| 2026-04-25 09:10 | 29.63236 | -80.59073 | 36945 ft | 474 kts | 237° |
| 2026-04-25 09:10 | 29.59381 | -80.65219 | 36952 ft | 474 kts | 237° |
| 2026-04-25 09:11 | 29.53595 | -80.74427 | 36951 ft | 474 kts | 237° |
| 2026-04-25 09:11 | 29.49726 | -80.80572 | 36948 ft | 474 kts | 237° |
| 2026-04-25 09:12 | 29.45860 | -80.86704 | 36951 ft | 474 kts | 237° |
| 2026-04-25 09:12 | 29.41990 | -80.92835 | 36946 ft | 474 kts | 237° |
| 2026-04-25 09:13 | 29.38187 | -80.98848 | 36519 ft | 461 kts | 237° |
| 2026-04-25 09:13 | 29.36304 | -81.01826 | 35768 ft | 462 kts | 237° |
| 2026-04-25 09:13 | 29.34396 | -81.04840 | 34830 ft | 469 kts | 237° |
| 2026-04-25 09:14 | 29.32265 | -81.07695 | 33691 ft | 479 kts | 223° |
| 2026-04-25 09:14 | 29.29430 | -81.09780 | 32492 ft | 493 kts | 205° |
| 2026-04-25 09:14 | 29.26111 | -81.10893 | 31411 ft | 503 kts | 190° |
| 2026-04-25 09:14 | 29.22607 | -81.10948 | 30353 ft | 508 kts | 177° |
| 2026-04-25 09:15 | 29.19080 | -81.10550 | 29365 ft | 509 kts | 176° |
| 2026-04-25 09:15 | 29.15577 | -81.10163 | 28726 ft | 501 kts | 177° |
| 2026-04-25 09:15 | 29.12134 | -81.09829 | 28174 ft | 488 kts | 178° |
| 2026-04-25 09:15 | 29.08803 | -81.09546 | 27238 ft | 474 kts | 178° |
| 2026-04-25 09:16 | 29.05532 | -81.09289 | 26096 ft | 467 kts | 178° |
| 2026-04-25 09:16 | 29.02305 | -81.09038 | 24924 ft | 463 kts | 178° |
| 2026-04-25 09:16 | 28.99142 | -81.08788 | 23932 ft | 456 kts | 178° |
| 2026-04-25 09:16 | 28.96046 | -81.08541 | 23607 ft | 433 kts | 178° |
| 2026-04-25 09:17 | 28.90356 | -81.08086 | 22887 ft | 394 kts | 179° |
| 2026-04-25 09:17 | 28.87628 | -81.07873 | 21971 ft | 392 kts | 179° |
| 2026-04-25 09:17 | 28.84916 | -81.07662 | 21086 ft | 389 kts | 179° |
| 2026-04-25 09:18 | 28.82223 | -81.07450 | 20240 ft | 387 kts | 179° |
| 2026-04-25 09:18 | 28.79545 | -81.07238 | 19404 ft | 384 kts | 178° |
| 2026-04-25 09:18 | 28.76891 | -81.07029 | 18606 ft | 381 kts | 178° |
| 2026-04-25 09:18 | 28.74255 | -81.06820 | 17741 ft | 379 kts | 178° |
| 2026-04-25 09:19 | 28.71642 | -81.06541 | 16854 ft | 377 kts | 171° |
| 2026-04-25 09:19 | 28.69142 | -81.05670 | 15974 ft | 376 kts | 156° |
| 2026-04-25 09:19 | 28.66924 | -81.04109 | 15127 ft | 374 kts | 141° |
| 2026-04-25 09:19 | 28.65153 | -81.01960 | 14289 ft | 372 kts | 124° |
| 2026-04-25 09:20 | 28.63987 | -80.99402 | 13477 ft | 368 kts | 108° |
| 2026-04-25 09:20 | 28.63507 | -80.96576 | 12635 ft | 361 kts | 90° |
| 2026-04-25 09:20 | 28.63819 | -80.93814 | 12090 ft | 345 kts | 70° |
| 2026-04-25 09:20 | 28.64903 | -80.91465 | 11511 ft | 330 kts | 48° |
| 2026-04-25 09:21 | 28.66625 | -80.89835 | 10920 ft | 318 kts | 25° |
| 2026-04-25 09:21 | 28.68702 | -80.89148 | 10315 ft | 308 kts | 1° |
| 2026-04-25 09:21 | 28.70748 | -80.89474 | 9719 ft | 300 kts | 338° |
| 2026-04-25 09:21 | 28.72467 | -80.90735 | 9072 ft | 293 kts | 313° |
| 2026-04-25 09:22 | 28.73524 | -80.92687 | 8439 ft | 289 kts | 288° |
| 2026-04-25 09:22 | 28.73967 | -80.94896 | 7927 ft | 283 kts | 280° |
| 2026-04-25 09:22 | 28.74243 | -80.97060 | 7422 ft | 278 kts | 278° |
| 2026-04-25 09:22 | 28.74487 | -80.99202 | 7126 ft | 265 kts | 278° |
| 2026-04-25 09:23 | 28.74709 | -81.01220 | 6977 ft | 247 kts | 278° |
| 2026-04-25 09:23 | 28.74917 | -81.03149 | 7014 ft | 248 kts | 278° |
| 2026-04-25 09:23 | 28.75126 | -81.05107 | 7004 ft | 248 kts | 278° |
| 2026-04-25 09:23 | 28.75447 | -81.07040 | 6622 ft | 251 kts | 288° |
| 2026-04-25 09:24 | 28.76027 | -81.08933 | 6170 ft | 255 kts | 291° |
| 2026-04-25 09:24 | 28.76665 | -81.10846 | 5680 ft | 260 kts | 291° |
| 2026-04-25 09:24 | 28.77176 | -81.12813 | 5215 ft | 259 kts | 276° |
| 2026-04-25 09:24 | 28.77117 | -81.14832 | 4857 ft | 258 kts | 266° |
| 2026-04-25 09:25 | 28.76963 | -81.16875 | 4465 ft | 259 kts | 266° |
| 2026-04-25 09:25 | 28.76816 | -81.18921 | 4068 ft | 259 kts | 266° |
| 2026-04-25 09:25 | 28.76675 | -81.20968 | 3671 ft | 256 kts | 266° |
| 2026-04-25 09:25 | 28.76491 | -81.22942 | 3346 ft | 243 kts | 256° |
| 2026-04-25 09:26 | 28.75860 | -81.24636 | 3231 ft | 223 kts | 242° |
| 2026-04-25 09:26 | 28.75170 | -81.26162 | 3125 ft | 212 kts | 243° |
| 2026-04-25 09:26 | 28.74507 | -81.27647 | 3068 ft | 211 kts | 243° |
| 2026-04-25 09:26 | 28.73843 | -81.29149 | 3016 ft | 214 kts | 243° |
| 2026-04-25 09:27 | 28.73178 | -81.30668 | 2999 ft | 214 kts | 243° |
| 2026-04-25 09:27 | 28.72368 | -81.32060 | 2969 ft | 210 kts | 219° |
| 2026-04-25 09:27 | 28.71055 | -81.32688 | 2990 ft | 205 kts | 187° |
| 2026-04-25 09:27 | 28.69615 | -81.32840 | 3002 ft | 212 kts | 183° |
| 2026-04-25 09:28 | 28.68132 | -81.32902 | 3000 ft | 214 kts | 180° |
| 2026-04-25 09:28 | 28.66653 | -81.32909 | 2990 ft | 211 kts | 180° |
| 2026-04-25 09:28 | 28.65192 | -81.32898 | 2974 ft | 208 kts | 179° |
| 2026-04-25 09:28 | 28.63780 | -81.32884 | 2959 ft | 195 kts | 179° |
| 2026-04-25 09:29 | 28.62523 | -81.32871 | 2941 ft | 174 kts | 179° |
| 2026-04-25 09:29 | 28.61347 | -81.32859 | 2969 ft | 166 kts | 179° |
| 2026-04-25 09:29 | 28.60197 | -81.32847 | 2988 ft | 165 kts | 179° |
| 2026-04-25 09:29 | 28.59023 | -81.32835 | 2816 ft | 172 kts | 179° |
| 2026-04-25 09:30 | 28.57841 | -81.32823 | 2592 ft | 166 kts | 180° |
| 2026-04-25 09:30 | 28.56728 | -81.32812 | 2396 ft | 153 kts | 180° |
| 2026-04-25 09:30 | 28.55705 | -81.32802 | 2181 ft | 142 kts | 180° |
| 2026-04-25 09:30 | 28.54720 | -81.32792 | 2026 ft | 142 kts | 180° |
| 2026-04-25 09:31 | 28.53743 | -81.32782 | 1827 ft | 139 kts | 181° |
| 2026-04-25 09:31 | 28.53105 | -81.32775 | 1686 ft | 137 kts | 181° |
| 2026-04-25 09:31 | 28.51837 | -81.32763 | 1453 ft | 136 kts | 180° |
| 2026-04-25 09:31 | 28.50884 | -81.32741 | 1329 ft | 138 kts | 180° |
| 2026-04-25 09:32 | 28.49909 | -81.32722 | 1058 ft | 139 kts | 181° |
| 2026-04-25 09:32 | 28.48942 | -81.32736 | 916 ft | 140 kts | 181° |
| 2026-04-25 09:32 | 28.47961 | -81.32730 | 774 ft | 142 kts | 179° |
| 2026-04-25 09:32 | 28.46978 | -81.32716 | 567 ft | 143 kts | 179° |
| 2026-04-25 09:33 | 28.45981 | -81.32708 | 359 ft | 143 kts | 179° |
| 2026-04-25 09:33 | 28.44987 | -81.32700 | 198 ft | 143 kts | 179° |
| 2026-04-25 09:33 | 28.44009 | -81.32690 | 107 ft | 131 kts | 179° |
| 2026-04-25 09:33 | 28.43208 | -81.32681 | 111 ft | 98 kts | 179° |
| 2026-04-25 09:34 | 28.42668 | -81.32674 | 107 ft | 50 kts | 179° |
| 2026-04-25 09:34 | 28.42358 | -81.32672 | 108 ft | 47 kts | 179° |
| 2026-04-25 09:34 | 28.42140 | -81.32669 | 108 ft | 29 kts | 179° |
| 2026-04-25 09:34 | 28.41938 | -81.32667 | 108 ft | 29 kts | 179° |
| 2026-04-25 09:35 | 28.41735 | -81.32664 | 109 ft | 29 kts | 180° |
| 2026-04-25 09:35 | 28.41563 | -81.32647 | 110 ft | 19 kts | 156° |
| 2026-04-25 09:35 | 28.41539 | -81.32547 | 108 ft | 15 kts | 89° |
| 2026-04-25 09:35 | 28.41541 | -81.32417 | 107 ft | 18 kts | 89° |
| 2026-04-25 09:36 | 28.41542 | -81.32273 | 106 ft | 18 kts | 89° |
| 2026-04-25 09:36 | 28.41543 | -81.32129 | 106 ft | 18 kts | 89° |
| 2026-04-25 09:36 | 28.41544 | -81.31985 | 104 ft | 18 kts | 89° |
| 2026-04-25 09:36 | 28.41597 | -81.31875 | 106 ft | 18 kts | 6° |
| 2026-04-25 09:37 | 28.41723 | -81.31874 | 106 ft | 18 kts | 359° |
| 2026-04-25 09:37 | 28.41851 | -81.31876 | 108 ft | 18 kts | 359° |
| 2026-04-25 09:37 | 28.41978 | -81.31878 | 107 ft | 18 kts | 359° |
| 2026-04-25 09:37 | 28.42105 | -81.31876 | 110 ft | 18 kts | 8° |
| 2026-04-25 09:38 | 28.42195 | -81.31852 | 111 ft | 12 kts | 14° |
| 2026-04-25 09:38 | 28.42276 | -81.31832 | 111 ft | 12 kts | 3° |
| 2026-04-25 09:38 | 28.42362 | -81.31830 | 111 ft | 13 kts | 359° |
| 2026-04-25 09:38 | 28.42451 | -81.31832 | 110 ft | 13 kts | 360° |
| 2026-04-25 09:39 | 28.42540 | -81.31833 | 110 ft | 13 kts | 360° |
| 2026-04-25 09:39 | 28.42628 | -81.31834 | 110 ft | 13 kts | 359° |
| 2026-04-25 09:39 | 28.42718 | -81.31835 | 109 ft | 14 kts | 359° |
| 2026-04-25 09:40 | 28.42935 | -81.31838 | 107 ft | 17 kts | 360° |
| 2026-04-25 09:40 | 28.43053 | -81.31838 | 108 ft | 17 kts | 360° |
| 2026-04-25 09:40 | 28.43170 | -81.31840 | 107 ft | 17 kts | 359° |
| 2026-04-25 09:40 | 28.43287 | -81.31841 | 107 ft | 17 kts | 0° |
| 2026-04-25 09:41 | 28.43404 | -81.31841 | 107 ft | 17 kts | 0° |
| 2026-04-25 09:41 | 28.43492 | -81.31783 | 108 ft | 11 kts | 59° |
| 2026-04-25 09:41 | 28.43507 | -81.31697 | 107 ft | 12 kts | 95° |
| 2026-04-25 09:41 | 28.43485 | -81.31605 | 107 ft | 12 kts | 100° |
| 2026-04-25 09:42 | 28.43493 | -81.31538 | 107 ft | 1 kts | 71° |
| 2026-04-25 09:42 | 28.43496 | -81.31528 | 107 ft | 2 kts | 70° |
| 2026-04-25 09:42 | 28.43500 | -81.31517 | 107 ft | 0 kts | 70° |